Observation data for Tarzan on 07/13/2020      Previous  Date  Next       Current Mesonet Observations  Soil Data  Daily Summary Page  Observations in Plain Language
KTA1 130500Z 17008KT 30/06 A2995 RMK A01 T02970059  RH  022%=      5-min Rain = 0
KTA1 130501Z 17007KT 30/06 A2995 RMK A01 T02970059  RH  022%=      5-min Rain = 0
KTA1 130502Z 16007KT 30/06 A2995 RMK A01 T02970059  RH  022%=      5-min Rain = 0
KTA1 130503Z 16007KT 30/06 A2995 RMK A01 T02970059  RH  022%=      5-min Rain = 0
KTA1 130504Z 16007KT 30/06 A2995 RMK A01 T02960059  RH  022%=      5-min Rain = 0
KTA1 130505Z 16007KT 30/06 A2995 RMK A01 T02950059  RH  022%=      5-min Rain = 0
KTA1 130506Z 17006KT 30/06 A2995 RMK A01 T02950058  RH  022%=      5-min Rain = 0
KTA1 130507Z 16006KT 29/06 A2995 RMK A01 T02940058  RH  023%=      5-min Rain = 0
KTA1 130508Z 16007KT 29/06 A2995 RMK A01 T02930058  RH  023%=      5-min Rain = 0
KTA1 130509Z 16007KT 29/06 A2995 RMK A01 T02930057  RH  023%=      5-min Rain = 0
KTA1 130510Z 17007KT 29/06 A2995 RMK A01 T02930057  RH  022%=      5-min Rain = 0
KTA1 130511Z 16007KT 29/06 A2995 RMK A01 T02930057  RH  022%=      5-min Rain = 0
KTA1 130512Z 16007KT 29/06 A2995 RMK A01 T02920056  RH  022%=      5-min Rain = 0
KTA1 130513Z 16007KT 29/06 A2995 RMK A01 T02920056  RH  022%=      5-min Rain = 0
KTA1 130514Z 16008KT 29/06 A2995 RMK A01 T02920056  RH  023%=      5-min Rain = 0
KTA1 130515Z 16007KT 29/06 A2995 RMK A01 T02920057  RH  023%=      5-min Rain = 0
KTA1 130516Z 16008KT 29/06 A2995 RMK A01 T02910057  RH  023%=      5-min Rain = 0
KTA1 130517Z 15007KT 29/06 A2995 RMK A01 T02900058  RH  023%=      5-min Rain = 0
KTA1 130518Z 16007KT 29/06 A2995 RMK A01 T02890059  RH  023%=      5-min Rain = 0
KTA1 130519Z 16008KT 29/06 A2995 RMK A01 T02870059  RH  023%=      5-min Rain = 0
KTA1 130520Z 16008KT 29/06 A2995 RMK A01 T02870057  RH  023%=      5-min Rain = 0
KTA1 130521Z 16008KT 29/06 A2995 RMK A01 T02870057  RH  023%=      5-min Rain = 0
KTA1 130522Z 16008KT 29/06 A2995 RMK A01 T02870057  RH  023%=      5-min Rain = 0
KTA1 130523Z 16008KT 29/06 A2995 RMK A01 T02880059  RH  023%=      5-min Rain = 0
KTA1 130524Z 16008KT 29/06 A2995 RMK A01 T02870059  RH  024%=      5-min Rain = 0
KTA1 130525Z 16008KT 29/06 A2995 RMK A01 T02860058  RH  024%=      5-min Rain = 0
KTA1 130526Z 16008KT 29/06 A2995 RMK A01 T02860058  RH  023%=      5-min Rain = 0
KTA1 130527Z 16008KT 29/06 A2995 RMK A01 T02860058  RH  023%=      5-min Rain = 0
KTA1 130528Z 16008KT 29/06 A2995 RMK A01 T02860058  RH  023%=      5-min Rain = 0
KTA1 130529Z 16008KT 29/06 A2995 RMK A01 T02860057  RH  023%=      5-min Rain = 0
KTA1 130530Z 16008KT 29/06 A2995 RMK A01 T02860057  RH  023%=      5-min Rain = 0
KTA1 130531Z 16008KT 29/06 A2995 RMK A01 T02860056  RH  023%=      5-min Rain = 0
KTA1 130532Z 16008KT 29/06 A2995 RMK A01 T02870056  RH  023%=      5-min Rain = 0
KTA1 130533Z 17008KT 29/06 A2995 RMK A01 T02880055  RH  023%=      5-min Rain = 0
KTA1 130534Z 16008KT 29/06 A2995 RMK A01 T02880055  RH  023%=      5-min Rain = 0
KTA1 130535Z 16008KT 29/06 A2995 RMK A01 T02880055  RH  023%=      5-min Rain = 0
KTA1 130536Z 17008KT 29/06 A2995 RMK A01 T02890055  RH  023%=      5-min Rain = 0
KTA1 130537Z 17008KT 29/05 A2995 RMK A01 T02890054  RH  023%=      5-min Rain = 0
KTA1 130538Z 17008KT 29/05 A2995 RMK A01 T02890054  RH  023%=      5-min Rain = 0
KTA1 130539Z 17009KT 29/05 A2995 RMK A01 T02880054  RH  023%=      5-min Rain = 0
KTA1 130540Z 17008KT 29/05 A2996 RMK A01 T02890053  RH  022%=      5-min Rain = 0
KTA1 130541Z 17008KT 29/05 A2996 RMK A01 T02890053  RH  022%=      5-min Rain = 0
KTA1 130542Z 17008KT 29/05 A2996 RMK A01 T02890053  RH  022%=      5-min Rain = 0
KTA1 130543Z 17009KT 29/05 A2996 RMK A01 T02890052  RH  022%=      5-min Rain = 0
KTA1 130544Z 17008KT 29/05 A2996 RMK A01 T02900051  RH  022%=      5-min Rain = 0
KTA1 130545Z 17009KT 29/05 A2996 RMK A01 T02900051  RH  022%=      5-min Rain = 0
KTA1 130546Z 17008KT 29/05 A2996 RMK A01 T02900051  RH  022%=      5-min Rain = 0
KTA1 130547Z 17008KT 29/05 A2996 RMK A01 T02910051  RH  022%=      5-min Rain = 0
KTA1 130548Z 17008KT 29/05 A2996 RMK A01 T02910050  RH  022%=      5-min Rain = 0
KTA1 130549Z 17009KT 29/05 A2996 RMK A01 T02910051  RH  022%=      5-min Rain = 0
KTA1 130550Z 17008KT 29/05 A2996 RMK A01 T02910051  RH  022%=      5-min Rain = 0
KTA1 130551Z 17008KT 29/05 A2996 RMK A01 T02910051  RH  022%=      5-min Rain = 0
KTA1 130552Z 17009KT 29/05 A2996 RMK A01 T02910051  RH  022%=      5-min Rain = 0
KTA1 130553Z 17008KT 29/05 A2996 RMK A01 T02900051  RH  022%=      5-min Rain = 0
KTA1 130554Z 17008KT 29/05 A2996 RMK A01 T02900050  RH  022%=      5-min Rain = 0
KTA1 130555Z 17008KT 29/05 A2996 RMK A01 T02900051  RH  022%=      5-min Rain = 0
KTA1 130556Z 17009KT 29/05 A2996 RMK A01 T02900050  RH  022%=      5-min Rain = 0
KTA1 130557Z 17008KT 29/05 A2996 RMK A01 T02900051  RH  022%=      5-min Rain = 0
KTA1 130558Z 17009KT 29/05 A2996 RMK A01 T02900050  RH  022%=      5-min Rain = 0
KTA1 130559Z 16008KT 29/05 A2995 RMK A01 T02900050  RH  022%=      5-min Rain = 0
KTA1 130600Z 17009KT 29/05 A2995 RMK A01 T02900050  RH  022%=      5-min Rain = 0
KTA1 130601Z 16009KT 29/05 A2995 RMK A01 T02900050  RH  022%=      5-min Rain = 0
KTA1 130602Z 17009KT 29/05 A2995 RMK A01 T02910050  RH  022%=      5-min Rain = 0
KTA1 130603Z 17009KT 29/05 A2995 RMK A01 T02910050  RH  022%=      5-min Rain = 0
KTA1 130604Z 17009KT 29/05 A2995 RMK A01 T02920050  RH  022%=      5-min Rain = 0
KTA1 130605Z 17009KT 29/05 A2995 RMK A01 T02920051  RH  022%=      5-min Rain = 0
KTA1 130606Z 17009KT 29/05 A2995 RMK A01 T02920050  RH  022%=      5-min Rain = 0
KTA1 130607Z 17010KT 29/05 A2995 RMK A01 T02920051  RH  022%=      5-min Rain = 0
KTA1 130608Z 17009KT 29/05 A2995 RMK A01 T02920051  RH  022%=      5-min Rain = 0
KTA1 130609Z 16009KT 29/05 A2995 RMK A01 T02930052  RH  022%=      5-min Rain = 0
KTA1 130610Z 17010KT 29/05 A2995 RMK A01 T02920052  RH  022%=      5-min Rain = 0
KTA1 130611Z 16011KT 29/05 A2995 RMK A01 T02920052  RH  022%=      5-min Rain = 0
KTA1 130612Z 16011KT 29/05 A2995 RMK A01 T02920052  RH  022%=      5-min Rain = 0
KTA1 130613Z 17009KT 29/05 A2995 RMK A01 T02930053  RH  022%=      5-min Rain = 0
KTA1 130614Z 16009KT 29/05 A2995 RMK A01 T02930053  RH  022%=      5-min Rain = 0
KTA1 130615Z 16011KT 29/05 A2995 RMK A01 T02930054  RH  022%=      5-min Rain = 0
KTA1 130616Z 16010KT 29/05 A2995 RMK A01 T02930054  RH  022%=      5-min Rain = 0
KTA1 130617Z 17009KT 29/05 A2995 RMK A01 T02930054  RH  022%=      5-min Rain = 0
KTA1 130618Z 16009KT 29/05 A2995 RMK A01 T02930054  RH  022%=      5-min Rain = 0
KTA1 130619Z 17011KT 29/05 A2995 RMK A01 T02930054  RH  022%=      5-min Rain = 0
KTA1 130620Z 17009KT 29/05 A2995 RMK A01 T02940054  RH  022%=      5-min Rain = 0
KTA1 130621Z 17010KT 29/05 A2995 RMK A01 T02940054  RH  022%=      5-min Rain = 0
KTA1 130622Z 17009KT 29/05 A2995 RMK A01 T02940054  RH  022%=      5-min Rain = 0
KTA1 130623Z 17009KT 29/06 A2995 RMK A01 T02940055  RH  022%=      5-min Rain = 0
KTA1 130624Z 17010KT 29/06 A2995 RMK A01 T02940055  RH  022%=      5-min Rain = 0
KTA1 130625Z 17011KT 29/06 A2995 RMK A01 T02940055  RH  022%=      5-min Rain = 0
KTA1 130626Z 17010KT 29/06 A2995 RMK A01 T02930055  RH  022%=      5-min Rain = 0
KTA1 130627Z 17010KT 29/06 A2995 RMK A01 T02930056  RH  022%=      5-min Rain = 0
KTA1 130628Z 17009KT 29/06 A2995 RMK A01 T02930056  RH  022%=      5-min Rain = 0
KTA1 130629Z 17009KT 29/06 A2995 RMK A01 T02930056  RH  022%=      5-min Rain = 0
KTA1 130630Z 17009KT 29/06 A2995 RMK A01 T02930056  RH  022%=      5-min Rain = 0
KTA1 130631Z 17009KT 29/06 A2995 RMK A01 T02920056  RH  022%=      5-min Rain = 0
KTA1 130632Z 17010KT 29/06 A2995 RMK A01 T02920057  RH  023%=      5-min Rain = 0
KTA1 130633Z 17009KT 29/06 A2995 RMK A01 T02920057  RH  023%=      5-min Rain = 0
KTA1 130634Z 17009KT 29/06 A2995 RMK A01 T02920056  RH  023%=      5-min Rain = 0
KTA1 130635Z 17009KT 29/06 A2995 RMK A01 T02920057  RH  023%=      5-min Rain = 0
KTA1 130636Z 17010KT 29/06 A2995 RMK A01 T02920057  RH  023%=      5-min Rain = 0
KTA1 130637Z 17009KT 29/06 A2995 RMK A01 T02920057  RH  023%=      5-min Rain = 0
KTA1 130638Z 17010KT 29/06 A2995 RMK A01 T02910057  RH  023%=      5-min Rain = 0
KTA1 130639Z 17009KT 29/06 A2994 RMK A01 T02920057  RH  023%=      5-min Rain = 0
KTA1 130640Z 17009KT 29/06 A2995 RMK A01 T02920058  RH  023%=      5-min Rain = 0
KTA1 130641Z 18009KT 29/06 A2994 RMK A01 T02920058  RH  023%=      5-min Rain = 0
KTA1 130642Z 17009KT 29/06 A2995 RMK A01 T02920058  RH  023%=      5-min Rain = 0
KTA1 130643Z 18009KT 29/06 A2995 RMK A01 T02930059  RH  023%=      5-min Rain = 0
KTA1 130644Z 17009KT 29/06 A2995 RMK A01 T02930059  RH  023%=      5-min Rain = 0
KTA1 130645Z 18010KT 29/06 A2995 RMK A01 T02930060  RH  023%=      5-min Rain = 0
KTA1 130646Z 18009KT 29/06 A2995 RMK A01 T02930059  RH  023%=      5-min Rain = 0
KTA1 130647Z 18009KT 29/06 A2995 RMK A01 T02930060  RH  023%=      5-min Rain = 0
KTA1 130648Z 18007G12KT 29/06 A2995 RMK A01 T02930060  RH  023%=      5-min Rain = 0
KTA1 130649Z 18009KT 29/06 A2995 RMK A01 T02930061  RH  023%=      5-min Rain = 0
KTA1 130650Z 18008KT 29/06 A2995 RMK A01 T02930061  RH  023%=      5-min Rain = 0
KTA1 130651Z 18009KT 29/06 A2995 RMK A01 T02920061  RH  023%=      5-min Rain = 0
KTA1 130652Z 18009KT 29/06 A2994 RMK A01 T02930062  RH  023%=      5-min Rain = 0
KTA1 130653Z 18008KT 29/06 A2995 RMK A01 T02940063  RH  023%=      5-min Rain = 0
KTA1 130654Z 18008KT 29/06 A2994 RMK A01 T02940063  RH  023%=      5-min Rain = 0
KTA1 130655Z 18009KT 29/06 A2994 RMK A01 T02940063  RH  023%=      5-min Rain = 0
KTA1 130656Z 18010KT 29/06 A2995 RMK A01 T02940063  RH  023%=      5-min Rain = 0
KTA1 130657Z 18010KT 29/06 A2995 RMK A01 T02940063  RH  023%=      5-min Rain = 0
KTA1 130658Z 18009KT 30/06 A2995 RMK A01 T02950064  RH  023%=      5-min Rain = 0
KTA1 130659Z 18009KT 30/06 A2995 RMK A01 T02950064  RH  023%=      5-min Rain = 0
KTA1 130700Z 19009KT 30/06 A2995 RMK A01 T02950064  RH  023%=      5-min Rain = 0
KTA1 130701Z 18008KT 30/07 A2995 RMK A01 T02950065  RH  023%=      5-min Rain = 0
KTA1 130702Z 18009KT 29/07 A2995 RMK A01 T02940065  RH  024%=      5-min Rain = 0
KTA1 130703Z 18009KT 29/07 A2995 RMK A01 T02940065  RH  024%=      5-min Rain = 0
KTA1 130704Z 18009KT 29/07 A2995 RMK A01 T02940065  RH  024%=      5-min Rain = 0
KTA1 130705Z 18009KT 29/07 A2995 RMK A01 T02940065  RH  024%=      5-min Rain = 0
KTA1 130706Z 18009KT 29/07 A2995 RMK A01 T02940066  RH  024%=      5-min Rain = 0
KTA1 130707Z 18008KT 29/07 A2995 RMK A01 T02930066  RH  024%=      5-min Rain = 0
KTA1 130708Z 18008KT 29/07 A2995 RMK A01 T02930066  RH  024%=      5-min Rain = 0
KTA1 130709Z 18009KT 29/07 A2995 RMK A01 T02930067  RH  024%=      5-min Rain = 0
KTA1 130710Z 18009KT 29/07 A2995 RMK A01 T02930067  RH  024%=      5-min Rain = 0
KTA1 130711Z 18008KT 29/07 A2995 RMK A01 T02930067  RH  024%=      5-min Rain = 0
KTA1 130712Z 18009KT 29/07 A2995 RMK A01 T02930068  RH  024%=      5-min Rain = 0
KTA1 130713Z 18009KT 29/07 A2995 RMK A01 T02930067  RH  024%=      5-min Rain = 0
KTA1 130714Z 18009KT 29/07 A2995 RMK A01 T02930068  RH  024%=      5-min Rain = 0
KTA1 130715Z 18010KT 29/07 A2995 RMK A01 T02930068  RH  024%=      5-min Rain = 0
KTA1 130716Z 18010KT 29/07 A2995 RMK A01 T02930068  RH  024%=      5-min Rain = 0
KTA1 130717Z 18009KT 29/07 A2995 RMK A01 T02940069  RH  024%=      5-min Rain = 0
KTA1 130718Z 18008KT 29/07 A2995 RMK A01 T02940070  RH  024%=      5-min Rain = 0
KTA1 130719Z 18009KT 29/07 A2995 RMK A01 T02940070  RH  024%=      5-min Rain = 0
KTA1 130720Z 18008KT 29/07 A2995 RMK A01 T02940071  RH  025%=      5-min Rain = 0
KTA1 130721Z 18008KT 29/07 A2995 RMK A01 T02930071  RH  025%=      5-min Rain = 0
KTA1 130722Z 18009KT 29/07 A2995 RMK A01 T02930071  RH  025%=      5-min Rain = 0
KTA1 130723Z 18009KT 29/07 A2995 RMK A01 T02930071  RH  025%=      5-min Rain = 0
KTA1 130724Z 18008KT 29/07 A2995 RMK A01 T02920072  RH  025%=      5-min Rain = 0
KTA1 130725Z 18009KT 29/07 A2995 RMK A01 T02920072  RH  025%=      5-min Rain = 0
KTA1 130726Z 18008KT 29/07 A2995 RMK A01 T02920072  RH  025%=      5-min Rain = 0
KTA1 130727Z 18009KT 29/07 A2995 RMK A01 T02920072  RH  025%=      5-min Rain = 0
KTA1 130728Z 18010KT 29/07 A2995 RMK A01 T02920073  RH  025%=      5-min Rain = 0
KTA1 130729Z 18009KT 29/07 A2995 RMK A01 T02930073  RH  025%=      5-min Rain = 0
KTA1 130730Z 18010KT 29/07 A2995 RMK A01 T02930073  RH  025%=      5-min Rain = 0
KTA1 130731Z 18009KT 29/07 A2995 RMK A01 T02940074  RH  025%=      5-min Rain = 0
KTA1 130732Z 18007KT 29/07 A2995 RMK A01 T02930074  RH  025%=      5-min Rain = 0
KTA1 130733Z 18008KT 29/07 A2995 RMK A01 T02930074  RH  025%=      5-min Rain = 0
KTA1 130734Z 19008KT 29/07 A2995 RMK A01 T02930074  RH  025%=      5-min Rain = 0
KTA1 130735Z 19008KT 29/07 A2995 RMK A01 T02930074  RH  025%=      5-min Rain = 0
KTA1 130736Z 19009KT 29/07 A2995 RMK A01 T02920074  RH  025%=      5-min Rain = 0
KTA1 130737Z 19008KT 29/08 A2995 RMK A01 T02920075  RH  025%=      5-min Rain = 0
KTA1 130738Z 19008KT 29/08 A2995 RMK A01 T02920075  RH  026%=      5-min Rain = 0
KTA1 130739Z 18008KT 29/08 A2995 RMK A01 T02930075  RH  026%=      5-min Rain = 0
KTA1 130740Z 18008KT 29/08 A2995 RMK A01 T02920076  RH  026%=      5-min Rain = 0
KTA1 130741Z 18008KT 29/08 A2995 RMK A01 T02920076  RH  026%=      5-min Rain = 0
KTA1 130742Z 18009KT 29/08 A2995 RMK A01 T02920076  RH  026%=      5-min Rain = 0
KTA1 130743Z 18008KT 29/08 A2995 RMK A01 T02910076  RH  026%=      5-min Rain = 0
KTA1 130744Z 18009G14KT 29/08 A2995 RMK A01 T02910076  RH  026%=      5-min Rain = 0
KTA1 130745Z 18010KT 29/08 A2995 RMK A01 T02910077  RH  026%=      5-min Rain = 0
KTA1 130746Z 18010KT 29/08 A2995 RMK A01 T02910077  RH  026%=      5-min Rain = 0
KTA1 130747Z 18010KT 29/08 A2995 RMK A01 T02920078  RH  026%=      5-min Rain = 0
KTA1 130748Z 18010KT 29/08 A2995 RMK A01 T02930078  RH  026%=      5-min Rain = 0
KTA1 130749Z 18010KT 29/08 A2995 RMK A01 T02930079  RH  026%=      5-min Rain = 0
KTA1 130750Z 18008KT 29/08 A2995 RMK A01 T02930079  RH  026%=      5-min Rain = 0
KTA1 130751Z 18010KT 29/08 A2995 RMK A01 T02930079  RH  026%=      5-min Rain = 0
KTA1 130752Z 18010KT 29/08 A2995 RMK A01 T02930080  RH  026%=      5-min Rain = 0
KTA1 130753Z 18010KT 29/08 A2995 RMK A01 T02930080  RH  026%=      5-min Rain = 0
KTA1 130754Z 18009KT 29/08 A2995 RMK A01 T02940080  RH  026%=      5-min Rain = 0
KTA1 130755Z 18010KT 29/08 A2995 RMK A01 T02940081  RH  026%=      5-min Rain = 0
KTA1 130756Z 18009KT 29/08 A2995 RMK A01 T02940082  RH  027%=      5-min Rain = 0
KTA1 130757Z 18009KT 29/08 A2995 RMK A01 T02930082  RH  027%=      5-min Rain = 0
KTA1 130758Z 18010KT 29/08 A2995 RMK A01 T02930082  RH  027%=      5-min Rain = 0
KTA1 130759Z 18009KT 29/08 A2995 RMK A01 T02930083  RH  027%=      5-min Rain = 0
KTA1 130800Z 18010KT 29/08 A2995 RMK A01 T02930083  RH  027%=      5-min Rain = 0
KTA1 130801Z 18010KT 29/08 A2995 RMK A01 T02930084  RH  027%=      5-min Rain = 0
KTA1 130802Z 18010KT 29/08 A2995 RMK A01 T02930083  RH  027%=      5-min Rain = 0
KTA1 130803Z 18010KT 29/08 A2995 RMK A01 T02940084  RH  027%=      5-min Rain = 0
KTA1 130804Z 19010KT 29/08 A2995 RMK A01 T02940084  RH  027%=      5-min Rain = 0
KTA1 130805Z 18009KT 29/08 A2995 RMK A01 T02940084  RH  027%=      5-min Rain = 0
KTA1 130806Z 18011KT 29/08 A2995 RMK A01 T02940084  RH  027%=      5-min Rain = 0
KTA1 130807Z 18009KT 29/09 A2995 RMK A01 T02940085  RH  027%=      5-min Rain = 0
KTA1 130808Z 18010KT 29/09 A2995 RMK A01 T02940085  RH  027%=      5-min Rain = 0
KTA1 130809Z 18009G14KT 29/09 A2995 RMK A01 T02930085  RH  027%=      5-min Rain = 0
KTA1 130810Z 18010KT 29/09 A2995 RMK A01 T02930086  RH  027%=      5-min Rain = 0
KTA1 130811Z 18011KT 29/09 A2995 RMK A01 T02930085  RH  027%=      5-min Rain = 0
KTA1 130812Z 18011KT 29/09 A2995 RMK A01 T02930086  RH  027%=      5-min Rain = 0
KTA1 130813Z 18011KT 29/09 A2995 RMK A01 T02940086  RH  027%=      5-min Rain = 0
KTA1 130814Z 18011KT 29/09 A2995 RMK A01 T02940086  RH  027%=      5-min Rain = 0
KTA1 130815Z 18012KT 29/09 A2995 RMK A01 T02940086  RH  027%=      5-min Rain = 0
KTA1 130816Z 18010KT 29/09 A2995 RMK A01 T02940086  RH  027%=      5-min Rain = 0
KTA1 130817Z 18011KT 30/09 A2995 RMK A01 T02950087  RH  027%=      5-min Rain = 0
KTA1 130818Z 18011KT 29/09 A2995 RMK A01 T02940087  RH  027%=      5-min Rain = 0
KTA1 130819Z 18010KT 30/09 A2995 RMK A01 T02950088  RH  027%=      5-min Rain = 0
KTA1 130820Z 18010KT 29/09 A2995 RMK A01 T02940088  RH  027%=      5-min Rain = 0
KTA1 130821Z 18010KT 29/09 A2995 RMK A01 T02940088  RH  028%=      5-min Rain = 0
KTA1 130822Z 18010KT 29/09 A2995 RMK A01 T02930088  RH  028%=      5-min Rain = 0
KTA1 130823Z 18010KT 29/09 A2995 RMK A01 T02930088  RH  028%=      5-min Rain = 0
KTA1 130824Z 18010KT 29/09 A2995 RMK A01 T02930089  RH  028%=      5-min Rain = 0
KTA1 130825Z 18008KT 29/09 A2995 RMK A01 T02930089  RH  028%=      5-min Rain = 0
KTA1 130826Z 18009KT 29/09 A2995 RMK A01 T02930089  RH  028%=      5-min Rain = 0
KTA1 130827Z 18009KT 29/09 A2995 RMK A01 T02920089  RH  028%=      5-min Rain = 0
KTA1 130828Z 18010KT 29/09 A2995 RMK A01 T02920089  RH  028%=      5-min Rain = 0
KTA1 130829Z 18009KT 29/09 A2995 RMK A01 T02920089  RH  028%=      5-min Rain = 0
KTA1 130830Z 18008KT 29/09 A2995 RMK A01 T02920089  RH  028%=      5-min Rain = 0
KTA1 130831Z 18009KT 29/09 A2995 RMK A01 T02920089  RH  028%=      5-min Rain = 0
KTA1 130832Z 18008KT 29/09 A2995 RMK A01 T02920090  RH  028%=      5-min Rain = 0
KTA1 130833Z 18008KT 29/09 A2995 RMK A01 T02920089  RH  028%=      5-min Rain = 0
KTA1 130834Z 18008KT 29/09 A2995 RMK A01 T02920090  RH  028%=      5-min Rain = 0
KTA1 130835Z 18008KT 29/09 A2995 RMK A01 T02920090  RH  028%=      5-min Rain = 0
KTA1 130836Z 18008KT 29/09 A2995 RMK A01 T02920090  RH  028%=      5-min Rain = 0
KTA1 130837Z 18010KT 29/09 A2995 RMK A01 T02920090  RH  028%=      5-min Rain = 0
KTA1 130838Z 18010KT 29/09 A2995 RMK A01 T02920090  RH  028%=      5-min Rain = 0
KTA1 130839Z 18009KT 29/09 A2995 RMK A01 T02930090  RH  028%=      5-min Rain = 0
KTA1 130840Z 18009KT 29/09 A2995 RMK A01 T02930090  RH  028%=      5-min Rain = 0
KTA1 130841Z 19009KT 29/09 A2995 RMK A01 T02930091  RH  028%=      5-min Rain = 0
KTA1 130842Z 18009KT 29/09 A2995 RMK A01 T02930091  RH  028%=      5-min Rain = 0
KTA1 130843Z 19009KT 29/09 A2995 RMK A01 T02920091  RH  028%=      5-min Rain = 0
KTA1 130844Z 19009KT 29/09 A2995 RMK A01 T02920091  RH  029%=      5-min Rain = 0
KTA1 130845Z 19009KT 29/09 A2995 RMK A01 T02920091  RH  029%=      5-min Rain = 0
KTA1 130846Z 19008KT 29/09 A2995 RMK A01 T02910091  RH  029%=      5-min Rain = 0
KTA1 130847Z 19009KT 29/09 A2995 RMK A01 T02910091  RH  029%=      5-min Rain = 0
KTA1 130848Z 19009KT 29/09 A2995 RMK A01 T02920092  RH  029%=      5-min Rain = 0
KTA1 130849Z 19008KT 29/09 A2995 RMK A01 T02910091  RH  029%=      5-min Rain = 0
KTA1 130850Z 19008KT 29/09 A2995 RMK A01 T02910092  RH  029%=      5-min Rain = 0
KTA1 130851Z 19008KT 29/09 A2995 RMK A01 T02910092  RH  029%=      5-min Rain = 0
KTA1 130852Z 19009KT 29/09 A2995 RMK A01 T02900092  RH  029%=      5-min Rain = 0
KTA1 130853Z 19009KT 29/09 A2995 RMK A01 T02900092  RH  029%=      5-min Rain = 0
KTA1 130854Z 18009KT 29/09 A2995 RMK A01 T02910092  RH  029%=      5-min Rain = 0
KTA1 130855Z 19007KT 29/09 A2995 RMK A01 T02900092  RH  029%=      5-min Rain = 0
KTA1 130856Z 18008KT 29/09 A2995 RMK A01 T02900092  RH  029%=      5-min Rain = 0
KTA1 130857Z 18008KT 29/09 A2995 RMK A01 T02890092  RH  029%=      5-min Rain = 0
KTA1 130858Z 19008KT 29/09 A2995 RMK A01 T02890093  RH  029%=      5-min Rain = 0
KTA1 130859Z 18008KT 29/09 A2995 RMK A01 T02880092  RH  029%=      5-min Rain = 0
KTA1 130900Z 18008KT 29/09 A2995 RMK A01 T02880092  RH  029%=      5-min Rain = 0
KTA1 130901Z 18007KT 29/09 A2995 RMK A01 T02880092  RH  029%=      5-min Rain = 0
KTA1 130902Z 18008KT 29/09 A2995 RMK A01 T02870092  RH  030%=      5-min Rain = 0
KTA1 130903Z 18008KT 29/09 A2995 RMK A01 T02870093  RH  030%=      5-min Rain = 0
KTA1 130904Z 19007KT 29/09 A2995 RMK A01 T02870092  RH  030%=      5-min Rain = 0
KTA1 130905Z 18007KT 29/09 A2995 RMK A01 T02870092  RH  030%=      5-min Rain = 0
KTA1 130906Z 19007KT 29/09 A2996 RMK A01 T02870092  RH  030%=      5-min Rain = 0
KTA1 130907Z 18007KT 29/09 A2996 RMK A01 T02870093  RH  030%=      5-min Rain = 0
KTA1 130908Z 19006KT 29/09 A2996 RMK A01 T02860093  RH  030%=      5-min Rain = 0
KTA1 130909Z 19007KT 29/09 A2996 RMK A01 T02860092  RH  030%=      5-min Rain = 0
KTA1 130910Z 18007KT 29/09 A2996 RMK A01 T02850092  RH  030%=      5-min Rain = 0
KTA1 130911Z 19007KT 29/09 A2996 RMK A01 T02850092  RH  030%=      5-min Rain = 0
KTA1 130912Z 19007KT 28/09 A2996 RMK A01 T02840093  RH  030%=      5-min Rain = 0
KTA1 130913Z 19006KT 28/09 A2996 RMK A01 T02840093  RH  030%=      5-min Rain = 0
KTA1 130914Z 18006KT 28/09 A2996 RMK A01 T02830093  RH  030%=      5-min Rain = 0
KTA1 130915Z 19007KT 28/09 A2996 RMK A01 T02820092  RH  030%=      5-min Rain = 0
KTA1 130916Z 19006KT 28/09 A2996 RMK A01 T02820093  RH  031%=      5-min Rain = 0
KTA1 130917Z 18007KT 28/09 A2996 RMK A01 T02810092  RH  031%=      5-min Rain = 0
KTA1 130918Z 18006KT 28/09 A2996 RMK A01 T02810093  RH  031%=      5-min Rain = 0
KTA1 130919Z 18006KT 28/09 A2996 RMK A01 T02800092  RH  031%=      5-min Rain = 0
KTA1 130920Z 18007KT 28/09 A2996 RMK A01 T02800092  RH  031%=      5-min Rain = 0
KTA1 130921Z 18007KT 28/09 A2996 RMK A01 T02790092  RH  031%=      5-min Rain = 0
KTA1 130922Z 19006KT 28/09 A2996 RMK A01 T02790092  RH  031%=      5-min Rain = 0
KTA1 130923Z 18007KT 28/09 A2996 RMK A01 T02790092  RH  031%=      5-min Rain = 0
KTA1 130924Z 18007KT 28/09 A2996 RMK A01 T02780092  RH  031%=      5-min Rain = 0
KTA1 130925Z 18007KT 28/09 A2996 RMK A01 T02780092  RH  031%=      5-min Rain = 0
KTA1 130926Z 19007KT 28/09 A2996 RMK A01 T02770092  RH  031%=      5-min Rain = 0
KTA1 130927Z 18006KT 28/09 A2996 RMK A01 T02770092  RH  031%=      5-min Rain = 0
KTA1 130928Z 18006KT 28/09 A2996 RMK A01 T02770092  RH  031%=      5-min Rain = 0
KTA1 130929Z 18007KT 28/09 A2995 RMK A01 T02760092  RH  031%=      5-min Rain = 0
KTA1 130930Z 19006KT 28/09 A2995 RMK A01 T02760092  RH  031%=      5-min Rain = 0
KTA1 130931Z 18006KT 28/09 A2995 RMK A01 T02760092  RH  031%=      5-min Rain = 0
KTA1 130932Z 19006KT 28/09 A2995 RMK A01 T02760092  RH  032%=      5-min Rain = 0
KTA1 130933Z 19007KT 28/09 A2995 RMK A01 T02760093  RH  032%=      5-min Rain = 0
KTA1 130934Z 19007KT 28/09 A2995 RMK A01 T02760092  RH  032%=      5-min Rain = 0
KTA1 130935Z 19007KT 28/09 A2996 RMK A01 T02760093  RH  032%=      5-min Rain = 0
KTA1 130936Z 19006KT 28/09 A2996 RMK A01 T02760093  RH  032%=      5-min Rain = 0
KTA1 130937Z 19007KT 28/09 A2996 RMK A01 T02750093  RH  032%=      5-min Rain = 0
KTA1 130938Z 19006KT 28/09 A2996 RMK A01 T02750093  RH  032%=      5-min Rain = 0
KTA1 130939Z 19006KT 27/09 A2996 RMK A01 T02740093  RH  032%=      5-min Rain = 0
KTA1 130940Z 19006KT 27/09 A2996 RMK A01 T02740093  RH  032%=      5-min Rain = 0
KTA1 130941Z 19005KT 27/09 A2996 RMK A01 T02730093  RH  032%=      5-min Rain = 0
KTA1 130942Z 19005KT 27/09 A2996 RMK A01 T02730094  RH  032%=      5-min Rain = 0
KTA1 130943Z 19005KT 27/09 A2996 RMK A01 T02720094  RH  033%=      5-min Rain = 0
KTA1 130944Z 19005KT 27/09 A2996 RMK A01 T02710094  RH  033%=      5-min Rain = 0
KTA1 130945Z 19006KT 27/09 A2996 RMK A01 T02700094  RH  033%=      5-min Rain = 0
KTA1 130946Z 19006KT 27/09 A2996 RMK A01 T02690093  RH  033%=      5-min Rain = 0
KTA1 130947Z 19005KT 27/09 A2996 RMK A01 T02690094  RH  033%=      5-min Rain = 0
KTA1 130948Z 19005KT 27/09 A2996 RMK A01 T02680094  RH  033%=      5-min Rain = 0
KTA1 130949Z 19006KT 27/09 A2996 RMK A01 T02670094  RH  034%=      5-min Rain = 0
KTA1 130950Z 19005KT 27/09 A2996 RMK A01 T02660094  RH  034%=      5-min Rain = 0
KTA1 130951Z 19005KT 27/09 A2996 RMK A01 T02650094  RH  034%=      5-min Rain = 0
KTA1 130952Z 18005KT 26/09 A2996 RMK A01 T02640094  RH  034%=      5-min Rain = 0
KTA1 130953Z 18006KT 26/09 A2996 RMK A01 T02630094  RH  034%=      5-min Rain = 0
KTA1 130954Z 18006KT 26/09 A2996 RMK A01 T02630094  RH  034%=      5-min Rain = 0
KTA1 130955Z 18007KT 26/09 A2996 RMK A01 T02620094  RH  035%=      5-min Rain = 0
KTA1 130956Z 18007KT 26/09 A2995 RMK A01 T02610094  RH  035%=      5-min Rain = 0
KTA1 130957Z 17007KT 26/09 A2995 RMK A01 T02610094  RH  035%=      5-min Rain = 0
KTA1 130958Z 17007KT 26/10 A2995 RMK A01 T02610095  RH  035%=      5-min Rain = 0
KTA1 130959Z 17007KT 26/10 A2995 RMK A01 T02610095  RH  035%=      5-min Rain = 0
KTA1 131000Z 17007KT 26/10 A2995 RMK A01 T02610095  RH  035%=      5-min Rain = 0
KTA1 131001Z 17007KT 26/10 A2995 RMK A01 T02610095  RH  035%=      5-min Rain = 0
KTA1 131002Z 17007KT 26/10 A2995 RMK A01 T02620095  RH  035%=      5-min Rain = 0
KTA1 131003Z 17007KT 26/10 A2995 RMK A01 T02620095  RH  035%=      5-min Rain = 0
KTA1 131004Z 17007KT 26/10 A2995 RMK A01 T02620095  RH  035%=      5-min Rain = 0
KTA1 131005Z 17006KT 26/10 A2995 RMK A01 T02620095  RH  035%=      5-min Rain = 0
KTA1 131006Z 17007KT 26/10 A2996 RMK A01 T02620095  RH  035%=      5-min Rain = 0
KTA1 131007Z 17007KT 26/10 A2996 RMK A01 T02630095  RH  035%=      5-min Rain = 0
KTA1 131008Z 18006KT 26/10 A2996 RMK A01 T02630095  RH  035%=      5-min Rain = 0
KTA1 131009Z 18006KT 26/10 A2996 RMK A01 T02640095  RH  035%=      5-min Rain = 0
KTA1 131010Z 17006KT 26/09 A2996 RMK A01 T02630094  RH  034%=      5-min Rain = 0
KTA1 131011Z 18006KT 26/10 A2996 RMK A01 T02640095  RH  034%=      5-min Rain = 0
KTA1 131012Z 18006KT 27/10 A2996 RMK A01 T02650095  RH  034%=      5-min Rain = 0
KTA1 131013Z 19005KT 27/10 A2996 RMK A01 T02650095  RH  034%=      5-min Rain = 0
KTA1 131014Z 18007KT 27/10 A2996 RMK A01 T02650095  RH  034%=      5-min Rain = 0
KTA1 131015Z 19006KT 27/10 A2996 RMK A01 T02650095  RH  034%=      5-min Rain = 0
KTA1 131016Z 18006KT 26/10 A2996 RMK A01 T02640095  RH  034%=      5-min Rain = 0
KTA1 131017Z 18007KT 26/10 A2996 RMK A01 T02640095  RH  035%=      5-min Rain = 0
KTA1 131018Z 18006KT 26/10 A2996 RMK A01 T02640096  RH  035%=      5-min Rain = 0
KTA1 131019Z 18006KT 26/10 A2996 RMK A01 T02640096  RH  035%=      5-min Rain = 0
KTA1 131020Z 18007KT 26/10 A2996 RMK A01 T02640096  RH  035%=      5-min Rain = 0
KTA1 131021Z 18007KT 26/10 A2996 RMK A01 T02640096  RH  035%=      5-min Rain = 0
KTA1 131022Z 18007KT 26/10 A2996 RMK A01 T02640096  RH  035%=      5-min Rain = 0
KTA1 131023Z 18007KT 26/10 A2996 RMK A01 T02640096  RH  035%=      5-min Rain = 0
KTA1 131024Z 18007KT 26/10 A2996 RMK A01 T02640096  RH  035%=      5-min Rain = 0
KTA1 131025Z 18006KT 26/10 A2996 RMK A01 T02640096  RH  035%=      5-min Rain = 0
KTA1 131026Z 18007KT 27/10 A2996 RMK A01 T02650097  RH  035%=      5-min Rain = 0
KTA1 131027Z 18007KT 27/10 A2996 RMK A01 T02650097  RH  035%=      5-min Rain = 0
KTA1 131028Z 18006KT 26/10 A2996 RMK A01 T02640097  RH  035%=      5-min Rain = 0
KTA1 131029Z 18007KT 26/10 A2996 RMK A01 T02640097  RH  035%=      5-min Rain = 0
KTA1 131030Z 18007KT 26/10 A2995 RMK A01 T02630097  RH  035%=      5-min Rain = 0
KTA1 131031Z 18006KT 26/10 A2995 RMK A01 T02630097  RH  035%=      5-min Rain = 0
KTA1 131032Z 18006KT 26/10 A2996 RMK A01 T02630097  RH  035%=      5-min Rain = 0
KTA1 131033Z 18006KT 26/10 A2996 RMK A01 T02620098  RH  035%=      5-min Rain = 0
KTA1 131034Z 18006KT 26/10 A2996 RMK A01 T02620098  RH  036%=      5-min Rain = 0
KTA1 131035Z 18006KT 26/10 A2996 RMK A01 T02610098  RH  036%=      5-min Rain = 0
KTA1 131036Z 18005KT 26/10 A2996 RMK A01 T02610098  RH  036%=      5-min Rain = 0
KTA1 131037Z 18006KT 26/10 A2996 RMK A01 T02600098  RH  036%=      5-min Rain = 0
KTA1 131038Z 18005KT 26/10 A2996 RMK A01 T02600098  RH  036%=      5-min Rain = 0
KTA1 131039Z 18005KT 26/10 A2996 RMK A01 T02600098  RH  036%=      5-min Rain = 0
KTA1 131040Z 18005KT 26/10 A2996 RMK A01 T02590098  RH  036%=      5-min Rain = 0
KTA1 131041Z 18005KT 26/10 A2996 RMK A01 T02590098  RH  036%=      5-min Rain = 0
KTA1 131042Z 18005KT 26/10 A2996 RMK A01 T02580098  RH  037%=      5-min Rain = 0
KTA1 131043Z 18005KT 26/10 A2996 RMK A01 T02570098  RH  037%=      5-min Rain = 0
KTA1 131044Z 18005KT 26/10 A2996 RMK A01 T02570099  RH  037%=      5-min Rain = 0
KTA1 131045Z 18005KT 26/10 A2996 RMK A01 T02560099  RH  037%=      5-min Rain = 0
KTA1 131046Z 18005KT 26/10 A2996 RMK A01 T02560098  RH  037%=      5-min Rain = 0
KTA1 131047Z 18005KT 26/10 A2996 RMK A01 T02550099  RH  037%=      5-min Rain = 0
KTA1 131048Z 18005KT 25/10 A2996 RMK A01 T02540099  RH  037%=      5-min Rain = 0
KTA1 131049Z 18005KT 25/10 A2996 RMK A01 T02530099  RH  038%=      5-min Rain = 0
KTA1 131050Z 18005KT 25/10 A2996 RMK A01 T02530099  RH  038%=      5-min Rain = 0
KTA1 131051Z 18005KT 25/10 A2996 RMK A01 T02520099  RH  038%=      5-min Rain = 0
KTA1 131052Z 18005KT 25/10 A2996 RMK A01 T02520099  RH  038%=      5-min Rain = 0
KTA1 131053Z 18005KT 25/10 A2996 RMK A01 T02510099  RH  038%=      5-min Rain = 0
KTA1 131054Z 18005KT 25/10 A2996 RMK A01 T02510099  RH  038%=      5-min Rain = 0
KTA1 131055Z 18005KT 25/10 A2996 RMK A01 T02500099  RH  039%=      5-min Rain = 0
KTA1 131056Z 18005KT 25/10 A2996 RMK A01 T02500099  RH  039%=      5-min Rain = 0
KTA1 131057Z 18005KT 25/10 A2995 RMK A01 T02490100  RH  039%=      5-min Rain = 0
KTA1 131058Z 18005KT 25/10 A2995 RMK A01 T02490099  RH  039%=      5-min Rain = 0
KTA1 131059Z 18005KT 25/10 A2995 RMK A01 T02480099  RH  039%=      5-min Rain = 0
KTA1 131100Z 18005KT 25/10 A2996 RMK A01 T02480100  RH  039%=      5-min Rain = 0
KTA1 131101Z 17005KT 25/10 A2996 RMK A01 T02470100  RH  039%=      5-min Rain = 0
KTA1 131102Z 17005KT 25/10 A2996 RMK A01 T02470100  RH  039%=      5-min Rain = 0
KTA1 131103Z 17005KT 25/10 A2996 RMK A01 T02470100  RH  039%=      5-min Rain = 0
KTA1 131104Z 17005KT 25/10 A2996 RMK A01 T02470100  RH  039%=      5-min Rain = 0
KTA1 131105Z 17005KT 25/10 A2996 RMK A01 T02470101  RH  040%=      5-min Rain = 0
KTA1 131106Z 17005KT 25/10 A2996 RMK A01 T02480101  RH  040%=      5-min Rain = 0
KTA1 131107Z 17005KT 25/10 A2996 RMK A01 T02470100  RH  039%=      5-min Rain = 0
KTA1 131108Z 16006KT 25/10 A2996 RMK A01 T02470100  RH  039%=      5-min Rain = 0
KTA1 131109Z 16006KT 25/10 A2996 RMK A01 T02480100  RH  039%=      5-min Rain = 0
KTA1 131110Z 16006KT 25/10 A2996 RMK A01 T02480101  RH  039%=      5-min Rain = 0
KTA1 131111Z 16006KT 25/10 A2996 RMK A01 T02480101  RH  039%=      5-min Rain = 0
KTA1 131112Z 16007KT 25/10 A2996 RMK A01 T02490101  RH  039%=      5-min Rain = 0
KTA1 131113Z 16006KT 25/10 A2996 RMK A01 T02490102  RH  039%=      5-min Rain = 0
KTA1 131114Z 16006KT 25/10 A2996 RMK A01 T02490102  RH  039%=      5-min Rain = 0
KTA1 131115Z 16005KT 25/10 A2996 RMK A01 T02490103  RH  040%=      5-min Rain = 0
KTA1 131116Z 16005KT 25/10 A2996 RMK A01 T02470103  RH  040%=      5-min Rain = 0
KTA1 131117Z 16005KT 24/10 A2996 RMK A01 T02440103  RH  041%=      5-min Rain = 0
KTA1 131118Z 16005KT 24/10 A2996 RMK A01 T02420103  RH  041%=      5-min Rain = 0
KTA1 131119Z 16006KT 24/10 A2996 RMK A01 T02400102  RH  042%=      5-min Rain = 0
KTA1 131120Z 16006KT 24/10 A2996 RMK A01 T02380102  RH  042%=      5-min Rain = 0
KTA1 131121Z 16006KT 24/10 A2996 RMK A01 T02370102  RH  042%=      5-min Rain = 0
KTA1 131122Z 16006KT 24/10 A2996 RMK A01 T02360102  RH  043%=      5-min Rain = 0
KTA1 131123Z 17006KT 24/10 A2997 RMK A01 T02350102  RH  043%=      5-min Rain = 0
KTA1 131124Z 16006KT 24/10 A2997 RMK A01 T02350101  RH  043%=      5-min Rain = 0
KTA1 131125Z 16006KT 24/10 A2997 RMK A01 T02350101  RH  043%=      5-min Rain = 0
KTA1 131126Z 17006KT 24/10 A2997 RMK A01 T02350102  RH  043%=      5-min Rain = 0
KTA1 131127Z 17006KT 24/10 A2997 RMK A01 T02350102  RH  043%=      5-min Rain = 0
KTA1 131128Z 17006KT 24/10 A2997 RMK A01 T02360102  RH  043%=      5-min Rain = 0
KTA1 131129Z 17006KT 24/10 A2997 RMK A01 T02360102  RH  043%=      5-min Rain = 0
KTA1 131130Z 16006KT 24/10 A2997 RMK A01 T02380102  RH  042%=      5-min Rain = 0
KTA1 131131Z 16007KT 24/10 A2997 RMK A01 T02380102  RH  042%=      5-min Rain = 0
KTA1 131132Z 16007KT 24/10 A2997 RMK A01 T02390102  RH  042%=      5-min Rain = 0
KTA1 131133Z 16007KT 24/10 A2997 RMK A01 T02400103  RH  042%=      5-min Rain = 0
KTA1 131134Z 16007KT 24/10 A2997 RMK A01 T02410103  RH  042%=      5-min Rain = 0
KTA1 131135Z 16007KT 24/10 A2997 RMK A01 T02420103  RH  041%=      5-min Rain = 0
KTA1 131136Z 16006KT 24/10 A2997 RMK A01 T02430103  RH  041%=      5-min Rain = 0
KTA1 131137Z 16006KT 24/10 A2997 RMK A01 T02430103  RH  041%=      5-min Rain = 0
KTA1 131138Z 16006KT 24/10 A2997 RMK A01 T02430103  RH  041%=      5-min Rain = 0
KTA1 131139Z 16006KT 24/10 A2997 RMK A01 T02430104  RH  041%=      5-min Rain = 0
KTA1 131140Z 16007KT 24/10 A2997 RMK A01 T02430104  RH  041%=      5-min Rain = 0
KTA1 131141Z 16006KT 24/10 A2997 RMK A01 T02430104  RH  042%=      5-min Rain = 0
KTA1 131142Z 16006KT 24/10 A2997 RMK A01 T02420104  RH  042%=      5-min Rain = 0
KTA1 131143Z 16006KT 24/10 A2997 RMK A01 T02420104  RH  042%=      5-min Rain = 0
KTA1 131144Z 16007KT 24/10 A2997 RMK A01 T02410104  RH  042%=      5-min Rain = 0
KTA1 131145Z 16007KT 24/10 A2997 RMK A01 T02410104  RH  042%=      5-min Rain = 0
KTA1 131146Z 16006KT 24/10 A2997 RMK A01 T02410104  RH  042%=      5-min Rain = 0
KTA1 131147Z 16006KT 24/10 A2997 RMK A01 T02410104  RH  042%=      5-min Rain = 0
KTA1 131148Z 16006KT 24/10 A2997 RMK A01 T02400104  RH  042%=      5-min Rain = 0
KTA1 131149Z 17006KT 24/10 A2997 RMK A01 T02400104  RH  042%=      5-min Rain = 0
KTA1 131150Z 17006KT 24/10 A2997 RMK A01 T02420103  RH  042%=      5-min Rain = 0
KTA1 131151Z 17006KT 24/10 A2997 RMK A01 T02440104  RH  041%=      5-min Rain = 0
KTA1 131152Z 17006KT 25/10 A2997 RMK A01 T02460104  RH  041%=      5-min Rain = 0
KTA1 131153Z 17006KT 25/10 A2997 RMK A01 T02480104  RH  040%=      5-min Rain = 0
KTA1 131154Z 17007KT 25/10 A2997 RMK A01 T02500104  RH  040%=      5-min Rain = 0
KTA1 131155Z 17006KT 25/10 A2997 RMK A01 T02510104  RH  040%=      5-min Rain = 0
KTA1 131156Z 18006KT 25/10 A2997 RMK A01 T02520104  RH  039%=      5-min Rain = 0
KTA1 131157Z 18005KT 25/10 A2997 RMK A01 T02520104  RH  039%=      5-min Rain = 0
KTA1 131158Z 18005KT 25/10 A2997 RMK A01 T02520104  RH  039%=      5-min Rain = 0
KTA1 131159Z 18005KT 25/10 A2997 RMK A01 T02520104  RH  039%=      5-min Rain = 0
KTA1 131200Z 18005KT 25/11 A2997 RMK A01 T02520105  RH  040%=      5-min Rain = 0
KTA1 131201Z 18005KT 25/11 A2997 RMK A01 T02510105  RH  040%=      5-min Rain = 0
KTA1 131202Z 18005KT 25/11 A2997 RMK A01 T02500105  RH  040%=      5-min Rain = 0
KTA1 131203Z 18005KT 25/11 A2997 RMK A01 T02490105  RH  040%=      5-min Rain = 0
KTA1 131204Z 19005KT 25/11 A2997 RMK A01 T02480105  RH  041%=      5-min Rain = 0
KTA1 131205Z 18005KT 25/11 A2997 RMK A01 T02480106  RH  041%=      5-min Rain = 0
KTA1 131206Z 18005KT 25/11 A2997 RMK A01 T02470106  RH  041%=      5-min Rain = 0
KTA1 131207Z 18005KT 25/11 A2997 RMK A01 T02460107  RH  041%=      5-min Rain = 0
KTA1 131208Z 18005KT 25/11 A2997 RMK A01 T02450107  RH  042%=      5-min Rain = 0
KTA1 131209Z 18005KT 25/11 A2997 RMK A01 T02450107  RH  042%=      5-min Rain = 0
KTA1 131210Z 18004KT 25/11 A2997 RMK A01 T02450107  RH  042%=      5-min Rain = 0
KTA1 131211Z 18004KT 25/11 A2997 RMK A01 T02450108  RH  042%=      5-min Rain = 0
KTA1 131212Z 18004KT 24/11 A2997 RMK A01 T02440107  RH  042%=      5-min Rain = 0
KTA1 131213Z 17005KT 25/11 A2997 RMK A01 T02450108  RH  042%=      5-min Rain = 0
KTA1 131214Z 17005KT 25/11 A2997 RMK A01 T02450108  RH  042%=      5-min Rain = 0
KTA1 131215Z 17005KT 25/11 A2997 RMK A01 T02450108  RH  042%=      5-min Rain = 0
KTA1 131216Z 17005KT 25/11 A2997 RMK A01 T02450109  RH  042%=      5-min Rain = 0
KTA1 131217Z 17005KT 25/11 A2997 RMK A01 T02450109  RH  042%=      5-min Rain = 0
KTA1 131218Z 16005KT 25/11 A2997 RMK A01 T02450110  RH  043%=      5-min Rain = 0
KTA1 131219Z 16005KT 25/11 A2997 RMK A01 T02460110  RH  043%=      5-min Rain = 0
KTA1 131220Z 16005KT 25/11 A2997 RMK A01 T02460111  RH  043%=      5-min Rain = 0
KTA1 131221Z 16003KT 25/11 A2997 RMK A01 T02460113  RH  043%=      5-min Rain = 0
KTA1 131222Z 16004KT 25/11 A2997 RMK A01 T02460114  RH  043%=      5-min Rain = 0
KTA1 131223Z 16004KT 25/11 A2997 RMK A01 T02450112  RH  043%=      5-min Rain = 0
KTA1 131224Z 16004KT 25/11 A2997 RMK A01 T02450113  RH  044%=      5-min Rain = 0
KTA1 131225Z 17004KT 25/11 A2997 RMK A01 T02450113  RH  044%=      5-min Rain = 0
KTA1 131226Z 16004KT 25/12 A2997 RMK A01 T02450115  RH  044%=      5-min Rain = 0
KTA1 131227Z 17005KT 24/12 A2997 RMK A01 T02440115  RH  044%=      5-min Rain = 0
KTA1 131228Z 17005KT 25/12 A2997 RMK A01 T02450116  RH  044%=      5-min Rain = 0
KTA1 131229Z 17005KT 25/12 A2997 RMK A01 T02450115  RH  044%=      5-min Rain = 0
KTA1 131230Z 17005KT 25/12 A2997 RMK A01 T02450115  RH  044%=      5-min Rain = 0
KTA1 131231Z 17005KT 25/11 A2997 RMK A01 T02460114  RH  043%=      5-min Rain = 0
KTA1 131232Z 17005KT 25/11 A2997 RMK A01 T02470113  RH  043%=      5-min Rain = 0
KTA1 131233Z 17005KT 25/11 A2997 RMK A01 T02490113  RH  043%=      5-min Rain = 0
KTA1 131234Z 17005KT 25/11 A2997 RMK A01 T02500113  RH  042%=      5-min Rain = 0
KTA1 131235Z 17005KT 25/11 A2997 RMK A01 T02500113  RH  042%=      5-min Rain = 0
KTA1 131236Z 17005KT 25/11 A2997 RMK A01 T02510114  RH  042%=      5-min Rain = 0
KTA1 131237Z 17004KT 25/11 A2997 RMK A01 T02510114  RH  042%=      5-min Rain = 0
KTA1 131238Z 17005KT 25/11 A2998 RMK A01 T02520114  RH  042%=      5-min Rain = 0
KTA1 131239Z 18005KT 25/12 A2998 RMK A01 T02520115  RH  042%=      5-min Rain = 0
KTA1 131240Z 18004KT 25/11 A2998 RMK A01 T02520114  RH  042%=      5-min Rain = 0
KTA1 131241Z 18004KT 25/12 A2998 RMK A01 T02530115  RH  042%=      5-min Rain = 0
KTA1 131242Z 17004KT 25/12 A2998 RMK A01 T02530116  RH  042%=      5-min Rain = 0
KTA1 131243Z 16004KT 25/12 A2998 RMK A01 T02530117  RH  043%=      5-min Rain = 0
KTA1 131244Z 17004KT 25/12 A2998 RMK A01 T02530118  RH  043%=      5-min Rain = 0
KTA1 131245Z 17004KT 25/12 A2998 RMK A01 T02530118  RH  043%=      5-min Rain = 0
KTA1 131246Z 17005KT 25/12 A2998 RMK A01 T02530119  RH  043%=      5-min Rain = 0
KTA1 131247Z 16004KT 25/12 A2998 RMK A01 T02530120  RH  043%=      5-min Rain = 0
KTA1 131248Z 16004KT 25/12 A2998 RMK A01 T02530121  RH  044%=      5-min Rain = 0
KTA1 131249Z 15004KT 25/12 A2998 RMK A01 T02520120  RH  044%=      5-min Rain = 0
KTA1 131250Z 15004KT 25/12 A2998 RMK A01 T02520119  RH  043%=      5-min Rain = 0
KTA1 131251Z 15004KT 25/12 A2998 RMK A01 T02520120  RH  044%=      5-min Rain = 0
KTA1 131252Z 15004KT 25/12 A2998 RMK A01 T02520122  RH  044%=      5-min Rain = 0
KTA1 131253Z 15004KT 25/12 A2998 RMK A01 T02520121  RH  044%=      5-min Rain = 0
KTA1 131254Z 14004KT 25/12 A2998 RMK A01 T02510122  RH  044%=      5-min Rain = 0
KTA1 131255Z 15004KT 25/12 A2998 RMK A01 T02520121  RH  044%=      5-min Rain = 0
KTA1 131256Z 15004KT 25/12 A2998 RMK A01 T02510120  RH  044%=      5-min Rain = 0
KTA1 131257Z 15004KT 25/12 A2998 RMK A01 T02510119  RH  044%=      5-min Rain = 0
KTA1 131258Z 15004KT 25/12 A2998 RMK A01 T02510119  RH  044%=      5-min Rain = 0
KTA1 131259Z 15004KT 25/12 A2998 RMK A01 T02510119  RH  044%=      5-min Rain = 0
KTA1 131300Z 15004KT 25/12 A2998 RMK A01 T02510119  RH  044%=      5-min Rain = 0
KTA1 131301Z 16004KT 25/12 A2998 RMK A01 T02510120  RH  044%=      5-min Rain = 0
KTA1 131302Z 17004KT 25/12 A2998 RMK A01 T02510119  RH  044%=      5-min Rain = 0
KTA1 131303Z 17004KT 25/12 A2998 RMK A01 T02520119  RH  044%=      5-min Rain = 0
KTA1 131304Z 17004KT 25/12 A2998 RMK A01 T02520120  RH  044%=      5-min Rain = 0
KTA1 131305Z 17004KT 25/12 A2998 RMK A01 T02520119  RH  043%=      5-min Rain = 0
KTA1 131306Z 17004KT 25/12 A2998 RMK A01 T02530118  RH  043%=      5-min Rain = 0
KTA1 131307Z 17004KT 25/12 A2998 RMK A01 T02540118  RH  043%=      5-min Rain = 0
KTA1 131308Z 17005KT 25/12 A2998 RMK A01 T02540117  RH  042%=      5-min Rain = 0
KTA1 131309Z 17004KT 26/12 A2998 RMK A01 T02550118  RH  042%=      5-min Rain = 0
KTA1 131310Z 17006KT 26/12 A2998 RMK A01 T02560116  RH  042%=      5-min Rain = 0
KTA1 131311Z 17005KT 26/12 A2998 RMK A01 T02570115  RH  041%=      5-min Rain = 0
KTA1 131312Z 17005KT 26/12 A2998 RMK A01 T02580115  RH  041%=      5-min Rain = 0
KTA1 131313Z 17005KT 26/12 A2998 RMK A01 T02580115  RH  041%=      5-min Rain = 0
KTA1 131314Z 18005KT 26/12 A2998 RMK A01 T02590116  RH  041%=      5-min Rain = 0
KTA1 131315Z 18005KT 26/12 A2998 RMK A01 T02590116  RH  041%=      5-min Rain = 0
KTA1 131316Z 18005KT 26/12 A2998 RMK A01 T02590117  RH  041%=      5-min Rain = 0
KTA1 131317Z 18005KT 26/12 A2998 RMK A01 T02600117  RH  041%=      5-min Rain = 0
KTA1 131318Z 17005KT 26/12 A2998 RMK A01 T02600117  RH  041%=      5-min Rain = 0
KTA1 131319Z 17006KT 26/12 A2998 RMK A01 T02600117  RH  041%=      5-min Rain = 0
KTA1 131320Z 17005KT 26/12 A2998 RMK A01 T02600116  RH  041%=      5-min Rain = 0
KTA1 131321Z 17005KT 26/12 A2998 RMK A01 T02610118  RH  041%=      5-min Rain = 0
KTA1 131322Z 17005KT 26/12 A2998 RMK A01 T02610118  RH  041%=      5-min Rain = 0
KTA1 131323Z 17005KT 26/12 A2998 RMK A01 T02620119  RH  041%=      5-min Rain = 0
KTA1 131324Z 17005KT 26/12 A2998 RMK A01 T02610118  RH  041%=      5-min Rain = 0
KTA1 131325Z 17004KT 26/12 A2998 RMK A01 T02620119  RH  041%=      5-min Rain = 0
KTA1 131326Z 18005KT 26/12 A2998 RMK A01 T02620119  RH  041%=      5-min Rain = 0
KTA1 131327Z 18003KT 26/12 A2998 RMK A01 T02630119  RH  041%=      5-min Rain = 0
KTA1 131328Z 18003KT 26/12 A2998 RMK A01 T02630119  RH  041%=      5-min Rain = 0
KTA1 131329Z 18004KT 26/12 A2998 RMK A01 T02630119  RH  041%=      5-min Rain = 0
KTA1 131330Z 18003KT 26/12 A2998 RMK A01 T02640120  RH  041%=      5-min Rain = 0
KTA1 131331Z 18004KT 27/12 A2998 RMK A01 T02650120  RH  041%=      5-min Rain = 0
KTA1 131332Z 17004KT 27/12 A2998 RMK A01 T02650120  RH  041%=      5-min Rain = 0
KTA1 131333Z 17005KT 27/12 A2998 RMK A01 T02650120  RH  040%=      5-min Rain = 0
KTA1 131334Z 17006KT 27/12 A2998 RMK A01 T02660119  RH  040%=      5-min Rain = 0
KTA1 131335Z 16006KT 27/12 A2998 RMK A01 T02660119  RH  040%=      5-min Rain = 0
KTA1 131336Z 16005KT 27/12 A2998 RMK A01 T02670120  RH  040%=      5-min Rain = 0
KTA1 131337Z 16006KT 27/12 A2998 RMK A01 T02670121  RH  040%=      5-min Rain = 0
KTA1 131338Z 16006KT 27/12 A2998 RMK A01 T02670120  RH  040%=      5-min Rain = 0
KTA1 131339Z 16007KT 27/12 A2998 RMK A01 T02670120  RH  040%=      5-min Rain = 0
KTA1 131340Z 16006KT 27/12 A2998 RMK A01 T02670120  RH  040%=      5-min Rain = 0
KTA1 131341Z 16006KT 27/12 A2998 RMK A01 T02670121  RH  040%=      5-min Rain = 0
KTA1 131342Z 16007KT 27/12 A2998 RMK A01 T02670121  RH  040%=      5-min Rain = 0
KTA1 131343Z 15006KT 27/12 A2998 RMK A01 T02670120  RH  040%=      5-min Rain = 0
KTA1 131344Z 15007KT 27/12 A2998 RMK A01 T02680121  RH  040%=      5-min Rain = 0
KTA1 131345Z 15007KT 27/12 A2998 RMK A01 T02680120  RH  040%=      5-min Rain = 0
KTA1 131346Z 15006KT 27/12 A2998 RMK A01 T02690120  RH  040%=      5-min Rain = 0
KTA1 131347Z 16006KT 27/12 A2998 RMK A01 T02690120  RH  040%=      5-min Rain = 0
KTA1 131348Z 16005KT 27/12 A2999 RMK A01 T02690121  RH  040%=      5-min Rain = 0
KTA1 131349Z 15006KT 27/12 A2999 RMK A01 T02690120  RH  040%=      5-min Rain = 0
KTA1 131350Z 16005KT 27/12 A2999 RMK A01 T02700120  RH  039%=      5-min Rain = 0
KTA1 131351Z 16005KT 27/12 A2999 RMK A01 T02700121  RH  040%=      5-min Rain = 0
KTA1 131352Z 16006KT 27/12 A2999 RMK A01 T02700120  RH  039%=      5-min Rain = 0
KTA1 131353Z 16005KT 27/12 A2999 RMK A01 T02710120  RH  039%=      5-min Rain = 0
KTA1 131354Z 17005KT 27/12 A2999 RMK A01 T02710122  RH  039%=      5-min Rain = 0
KTA1 131355Z 16006KT 27/12 A2999 RMK A01 T02720122  RH  039%=      5-min Rain = 0
KTA1 131356Z 16005KT 27/12 A2999 RMK A01 T02720120  RH  039%=      5-min Rain = 0
KTA1 131357Z 16005KT 27/12 A2999 RMK A01 T02730122  RH  039%=      5-min Rain = 0
KTA1 131358Z 16007KT 27/12 A2999 RMK A01 T02730123  RH  039%=      5-min Rain = 0
KTA1 131359Z 16006KT 27/12 A2999 RMK A01 T02730120  RH  039%=      5-min Rain = 0
KTA1 131400Z 16006KT 27/12 A2999 RMK A01 T02740122  RH  039%=      5-min Rain = 0
KTA1 131401Z 16007KT 27/12 A2999 RMK A01 T02740121  RH  039%=      5-min Rain = 0
KTA1 131402Z 16007KT 28/12 A2999 RMK A01 T02750121  RH  039%=      5-min Rain = 0
KTA1 131403Z 17007KT 28/12 A2999 RMK A01 T02750119  RH  038%=      5-min Rain = 0
KTA1 131404Z 17007KT 28/12 A2999 RMK A01 T02760121  RH  038%=      5-min Rain = 0
KTA1 131405Z 17007KT 28/12 A2999 RMK A01 T02760121  RH  038%=      5-min Rain = 0
KTA1 131406Z 16008KT 28/12 A2999 RMK A01 T02770120  RH  038%=      5-min Rain = 0
KTA1 131407Z 16008KT 28/12 A2999 RMK A01 T02770120  RH  038%=      5-min Rain = 0
KTA1 131408Z 16008KT 28/12 A2999 RMK A01 T02780120  RH  037%=      5-min Rain = 0
KTA1 131409Z 16008KT 28/12 A2999 RMK A01 T02780121  RH  038%=      5-min Rain = 0
KTA1 131410Z 16007KT 28/12 A2999 RMK A01 T02780121  RH  038%=      5-min Rain = 0
KTA1 131411Z 16007KT 28/12 A2999 RMK A01 T02790122  RH  038%=      5-min Rain = 0
KTA1 131412Z 16007KT 28/12 A2999 RMK A01 T02790121  RH  037%=      5-min Rain = 0
KTA1 131413Z 16008KT 28/12 A2999 RMK A01 T02800122  RH  038%=      5-min Rain = 0
KTA1 131414Z 16008KT 28/12 A2999 RMK A01 T02800121  RH  037%=      5-min Rain = 0
KTA1 131415Z 16007KT 28/12 A2999 RMK A01 T02800120  RH  037%=      5-min Rain = 0
KTA1 131416Z 16006KT 28/12 A2999 RMK A01 T02810122  RH  037%=      5-min Rain = 0
KTA1 131417Z 18006KT 28/12 A2999 RMK A01 T02810121  RH  037%=      5-min Rain = 0
KTA1 131418Z 17005KT 28/12 A2999 RMK A01 T02820121  RH  037%=      5-min Rain = 0
KTA1 131419Z 17007KT 28/12 A30 RMK A01 T02820120  RH  037%=      5-min Rain = 0
KTA1 131420Z 18005KT 28/12 A30 RMK A01 T02830120  RH  036%=      5-min Rain = 0
KTA1 131421Z 20005KT 28/12 A30 RMK A01 T02840121  RH  036%=      5-min Rain = 0
KTA1 131422Z 20006KT 28/12 A30 RMK A01 T02840121  RH  036%=      5-min Rain = 0
KTA1 131423Z 19004KT 29/12 A30 RMK A01 T02850122  RH  036%=      5-min Rain = 0
KTA1 131424Z 20005KT 29/12 A30 RMK A01 T02850123  RH  037%=      5-min Rain = 0
KTA1 131425Z 19006KT 29/12 A30 RMK A01 T02860122  RH  036%=      5-min Rain = 0
KTA1 131426Z 18008KT 29/12 A30 RMK A01 T02860121  RH  036%=      5-min Rain = 0
KTA1 131427Z 18007KT 29/12 A30 RMK A01 T02860120  RH  036%=      5-min Rain = 0
KTA1 131428Z 18007KT 29/12 A30 RMK A01 T02870123  RH  036%=      5-min Rain = 0
KTA1 131429Z 18006KT 29/12 A30 RMK A01 T02880121  RH  036%=      5-min Rain = 0
KTA1 131430Z 18007KT 29/12 A30 RMK A01 T02880123  RH  036%=      5-min Rain = 0
KTA1 131431Z 18009KT 29/12 A30 RMK A01 T02890121  RH  035%=      5-min Rain = 0
KTA1 131432Z 18007KT 29/12 A30 RMK A01 T02890120  RH  035%=      5-min Rain = 0
KTA1 131433Z 18006KT 29/12 A30 RMK A01 T02900121  RH  035%=      5-min Rain = 0
KTA1 131434Z 18009KT 29/12 A30 RMK A01 T02900122  RH  035%=      5-min Rain = 0
KTA1 131435Z 18007KT 29/12 A30 RMK A01 T02910121  RH  035%=      5-min Rain = 0
KTA1 131436Z 18009KT 29/12 A30 RMK A01 T02910121  RH  035%=      5-min Rain = 0
KTA1 131437Z 18008KT 29/12 A30 RMK A01 T02920121  RH  035%=      5-min Rain = 0
KTA1 131438Z 18008KT 29/12 A30 RMK A01 T02920121  RH  035%=      5-min Rain = 0
KTA1 131439Z 18008KT 29/12 A30 RMK A01 T02930120  RH  034%=      5-min Rain = 0
KTA1 131440Z 17008KT 29/12 A30 RMK A01 T02930121  RH  035%=      5-min Rain = 0
KTA1 131441Z 17008KT 29/12 A30 RMK A01 T02940121  RH  034%=      5-min Rain = 0
KTA1 131442Z 17007KT 29/12 A30 RMK A01 T02940120  RH  034%=      5-min Rain = 0
KTA1 131443Z 18006KT 29/12 A30 RMK A01 T02940121  RH  034%=      5-min Rain = 0
KTA1 131444Z 17006KT 30/12 A30 RMK A01 T02950122  RH  034%=      5-min Rain = 0
KTA1 131445Z 17008KT 30/12 A30 RMK A01 T02950121  RH  034%=      5-min Rain = 0
KTA1 131446Z 17007KT 30/12 A30 RMK A01 T02950121  RH  034%=      5-min Rain = 0
KTA1 131447Z 17006KT 30/12 A30 RMK A01 T02950122  RH  034%=      5-min Rain = 0
KTA1 131448Z 17009KT 30/12 A30 RMK A01 T02950121  RH  034%=      5-min Rain = 0
KTA1 131449Z 17008KT 30/12 A30 RMK A01 T02960120  RH  034%=      5-min Rain = 0
KTA1 131450Z 17008KT 30/12 A30 RMK A01 T02960120  RH  034%=      5-min Rain = 0
KTA1 131451Z 17009KT 30/12 A30 RMK A01 T02960120  RH  034%=      5-min Rain = 0
KTA1 131452Z 17008KT 30/12 A30 RMK A01 T02970121  RH  034%=      5-min Rain = 0
KTA1 131453Z 17008KT 30/12 A30 RMK A01 T02970120  RH  034%=      5-min Rain = 0
KTA1 131454Z 17009KT 30/12 A30 RMK A01 T02970121  RH  034%=      5-min Rain = 0
KTA1 131455Z 17008KT 30/12 A30 RMK A01 T02970120  RH  034%=      5-min Rain = 0
KTA1 131456Z 17009KT 30/12 A30 RMK A01 T02970121  RH  034%=      5-min Rain = 0
KTA1 131457Z 17007KT 30/12 A30 RMK A01 T02980120  RH  034%=      5-min Rain = 0
KTA1 131458Z 17008KT 30/12 A30 RMK A01 T02980121  RH  034%=      5-min Rain = 0
KTA1 131459Z 17010KT 30/12 A30 RMK A01 T02980121  RH  034%=      5-min Rain = 0
KTA1 131500Z 17010KT 30/12 A30 RMK A01 T02980119  RH  033%=      5-min Rain = 0
KTA1 131501Z 17009KT 30/12 A30 RMK A01 T02990120  RH  033%=      5-min Rain = 0
KTA1 131502Z 17008KT 30/12 A30 RMK A01 T02990120  RH  033%=      5-min Rain = 0
KTA1 131503Z 18008KT 30/12 A30 RMK A01 T02990120  RH  033%=      5-min Rain = 0
KTA1 131504Z 17009KT 30/12 A30 RMK A01 T03000121  RH  033%=      5-min Rain = 0
KTA1 131505Z 18008KT 30/12 A30 RMK A01 T03000120  RH  033%=      5-min Rain = 0
KTA1 131506Z 17008KT 30/12 A30 RMK A01 T03000121  RH  033%=      5-min Rain = 0
KTA1 131507Z 17009KT 30/12 A30 RMK A01 T03000121  RH  033%=      5-min Rain = 0
KTA1 131508Z 17009KT 30/12 A30 RMK A01 T03000120  RH  033%=      5-min Rain = 0
KTA1 131509Z 18008KT 30/12 A30 RMK A01 T03000121  RH  033%=      5-min Rain = 0
KTA1 131510Z 17008KT 30/12 A30 RMK A01 T03010121  RH  033%=      5-min Rain = 0
KTA1 131511Z 18007KT 30/12 A30 RMK A01 T03010122  RH  033%=      5-min Rain = 0
KTA1 131512Z 17009KT 30/12 A30 RMK A01 T03010122  RH  033%=      5-min Rain = 0
KTA1 131513Z 17009KT 30/12 A30 RMK A01 T03020121  RH  033%=      5-min Rain = 0
KTA1 131514Z 18006KT 30/12 A30 RMK A01 T03020122  RH  033%=      5-min Rain = 0
KTA1 131515Z 18009KT 30/12 A30 RMK A01 T03030122  RH  033%=      5-min Rain = 0
KTA1 131516Z 18007KT 30/12 A30 RMK A01 T03030121  RH  033%=      5-min Rain = 0
KTA1 131517Z 18008KT 30/12 A30 RMK A01 T03040122  RH  033%=      5-min Rain = 0
KTA1 131518Z 18009KT 30/12 A30 RMK A01 T03040122  RH  033%=      5-min Rain = 0
KTA1 131519Z 18008KT 31/12 A2999 RMK A01 T03050122  RH  033%=      5-min Rain = 0
KTA1 131520Z 18007KT 31/12 A2999 RMK A01 T03050123  RH  033%=      5-min Rain = 0
KTA1 131521Z 19008KT 31/12 A2999 RMK A01 T03060123  RH  033%=      5-min Rain = 0
KTA1 131522Z 19008KT 31/12 A2999 RMK A01 T03070123  RH  032%=      5-min Rain = 0
KTA1 131523Z 19011KT 31/12 A2999 RMK A01 T03070120  RH  032%=      5-min Rain = 0
KTA1 131524Z 18010KT 31/12 A2999 RMK A01 T03080121  RH  032%=      5-min Rain = 0
KTA1 131525Z 19010KT 31/12 A2999 RMK A01 T03080120  RH  032%=      5-min Rain = 0
KTA1 131526Z 18009KT 31/12 A2999 RMK A01 T03090120  RH  031%=      5-min Rain = 0
KTA1 131527Z 18009KT 31/12 A2999 RMK A01 T03090120  RH  031%=      5-min Rain = 0
KTA1 131528Z 18009KT 31/12 A2999 RMK A01 T03100122  RH  031%=      5-min Rain = 0
KTA1 131529Z 19012KT 31/12 A2999 RMK A01 T03110121  RH  031%=      5-min Rain = 0
KTA1 131530Z 19011KT 31/12 A2999 RMK A01 T03110119  RH  031%=      5-min Rain = 0
KTA1 131531Z 19011KT 31/12 A2999 RMK A01 T03110120  RH  031%=      5-min Rain = 0
KTA1 131532Z 19011KT 31/12 A2999 RMK A01 T03120120  RH  031%=      5-min Rain = 0
KTA1 131533Z 18011KT 31/12 A2999 RMK A01 T03130120  RH  031%=      5-min Rain = 0
KTA1 131534Z 18012KT 32/12 A2999 RMK A01 T03150119  RH  030%=      5-min Rain = 0
KTA1 131535Z 18012KT 32/12 A2999 RMK A01 T03160119  RH  030%=      5-min Rain = 0
KTA1 131536Z 18011KT 32/12 A2999 RMK A01 T03170119  RH  030%=      5-min Rain = 0
KTA1 131537Z 18009KT 32/12 A2999 RMK A01 T03180119  RH  030%=      5-min Rain = 0
KTA1 131538Z 18010KT 32/12 A2999 RMK A01 T03190120  RH  030%=      5-min Rain = 0
KTA1 131539Z 19011KT 32/12 A2999 RMK A01 T03190119  RH  029%=      5-min Rain = 0
KTA1 131540Z 19009KT 32/12 A2999 RMK A01 T03200120  RH  029%=      5-min Rain = 0
KTA1 131541Z 19009KT 32/12 A2999 RMK A01 T03200121  RH  030%=      5-min Rain = 0
KTA1 131542Z 18013KT 32/12 A2999 RMK A01 T03210119  RH  029%=      5-min Rain = 0
KTA1 131543Z 19008KT 32/12 A2999 RMK A01 T03220117  RH  029%=      5-min Rain = 0
KTA1 131544Z 19010KT 32/12 A2999 RMK A01 T03240118  RH  028%=      5-min Rain = 0
KTA1 131545Z 19009KT 33/12 A2999 RMK A01 T03260120  RH  028%=      5-min Rain = 0
KTA1 131546Z 20010KT 33/12 A2999 RMK A01 T03300121  RH  028%=      5-min Rain = 0
KTA1 131547Z 19011KT 33/12 A2999 RMK A01 T03320119  RH  027%=      5-min Rain = 0
KTA1 131548Z 19009KT 33/12 A2999 RMK A01 T03320118  RH  027%=      5-min Rain = 0
KTA1 131549Z 20010KT 33/12 A2999 RMK A01 T03330122  RH  028%=      5-min Rain = 0
KTA1 131550Z 20012KT 34/12 A2999 RMK A01 T03350117  RH  026%=      5-min Rain = 0
KTA1 131551Z 20012KT 33/12 A2999 RMK A01 T03340115  RH  026%=      5-min Rain = 0
KTA1 131552Z 18011KT 33/12 A2999 RMK A01 T03320116  RH  027%=      5-min Rain = 0
KTA1 131553Z 18013KT 33/11 A2999 RMK A01 T03320114  RH  026%=      5-min Rain = 0
KTA1 131554Z 19013KT 33/11 A2999 RMK A01 T03330111  RH  026%=      5-min Rain = 0
KTA1 131555Z 20010G15KT 33/11 A2999 RMK A01 T03320112  RH  026%=      5-min Rain = 0
KTA1 131556Z 19012G17KT 33/11 A2999 RMK A01 T03320111  RH  026%=      5-min Rain = 0
KTA1 131557Z 19015KT 33/11 A2999 RMK A01 T03330109  RH  026%=      5-min Rain = 0
KTA1 131558Z 19010G15KT 33/11 A2999 RMK A01 T03330110  RH  026%=      5-min Rain = 0
KTA1 131559Z 20013KT 34/11 A2999 RMK A01 T03350110  RH  025%=      5-min Rain = 0
KTA1 131600Z 18013KT 34/11 A2999 RMK A01 T03350110  RH  025%=      5-min Rain = 0
KTA1 131601Z 18014KT 34/11 A2999 RMK A01 T03360109  RH  025%=      5-min Rain = 0
KTA1 131602Z 18014KT 34/11 A2999 RMK A01 T03380108  RH  025%=      5-min Rain = 0
KTA1 131603Z 19012G17KT 34/11 A2999 RMK A01 T03390109  RH  025%=      5-min Rain = 0
KTA1 131604Z 19012G17KT 34/11 A2999 RMK A01 T03410111  RH  025%=      5-min Rain = 0
KTA1 131605Z 19014KT 34/11 A2999 RMK A01 T03440109  RH  024%=      5-min Rain = 0
KTA1 131606Z 19013KT 35/11 A2999 RMK A01 T03450107  RH  024%=      5-min Rain = 0
KTA1 131607Z 20014KT 35/11 A2999 RMK A01 T03450107  RH  024%=      5-min Rain = 0
KTA1 131608Z 20013KT 35/11 A2999 RMK A01 T03470108  RH  023%=      5-min Rain = 0
KTA1 131609Z 20013KT 35/11 A2999 RMK A01 T03480111  RH  024%=      5-min Rain = 0
KTA1 131610Z 20014KT 35/11 A2999 RMK A01 T03490109  RH  023%=      5-min Rain = 0
KTA1 131611Z 20010G15KT 35/11 A2999 RMK A01 T03470109  RH  024%=      5-min Rain = 0
KTA1 131612Z 18010KT 35/11 A2999 RMK A01 T03460109  RH  024%=      5-min Rain = 0
KTA1 131613Z 18011KT 35/11 A2999 RMK A01 T03460110  RH  024%=      5-min Rain = 0
KTA1 131614Z 17013KT 35/11 A2999 RMK A01 T03450105  RH  023%=      5-min Rain = 0
KTA1 131615Z 19014G19KT 34/11 A2999 RMK A01 T03440105  RH  023%=      5-min Rain = 0
KTA1 131616Z 18015KT 34/11 A2999 RMK A01 T03430105  RH  024%=      5-min Rain = 0
KTA1 131617Z 18011KT 34/11 A2998 RMK A01 T03420106  RH  024%=      5-min Rain = 0
KTA1 131618Z 18013KT 34/11 A2998 RMK A01 T03420106  RH  024%=      5-min Rain = 0
KTA1 131619Z 19013KT 34/10 A2998 RMK A01 T03420103  RH  023%=      5-min Rain = 0
KTA1 131620Z 19015KT 34/10 A2998 RMK A01 T03420102  RH  023%=      5-min Rain = 0
KTA1 131621Z 19014KT 34/10 A2998 RMK A01 T03420102  RH  023%=      5-min Rain = 0
KTA1 131622Z 19015KT 34/10 A2998 RMK A01 T03440102  RH  023%=      5-min Rain = 0
KTA1 131623Z 19014KT 35/10 A2998 RMK A01 T03450101  RH  023%=      5-min Rain = 0
KTA1 131624Z 19011KT 35/10 A2998 RMK A01 T03470103  RH  023%=      5-min Rain = 0
KTA1 131625Z 20013KT 35/10 A2998 RMK A01 T03500104  RH  023%=      5-min Rain = 0
KTA1 131626Z 20015KT 35/10 A2998 RMK A01 T03500104  RH  022%=      5-min Rain = 0
KTA1 131627Z 19014KT 35/10 A2998 RMK A01 T03490103  RH  022%=      5-min Rain = 0
KTA1 131628Z 19016KT 35/10 A2998 RMK A01 T03490103  RH  022%=      5-min Rain = 0
KTA1 131629Z 19013KT 35/10 A2998 RMK A01 T03480103  RH  022%=      5-min Rain = 0
KTA1 131630Z 19013KT 35/10 A2998 RMK A01 T03480103  RH  022%=      5-min Rain = 0
KTA1 131631Z 19012KT 35/10 A2998 RMK A01 T03480102  RH  022%=      5-min Rain = 0
KTA1 131632Z 18014KT 35/10 A2998 RMK A01 T03480102  RH  022%=      5-min Rain = 0
KTA1 131633Z 19013G18KT 35/10 A2998 RMK A01 T03480102  RH  022%=      5-min Rain = 0
KTA1 131634Z 19012KT 35/10 A2998 RMK A01 T03480101  RH  022%=      5-min Rain = 0
KTA1 131635Z 18014KT 35/10 A2998 RMK A01 T03480099  RH  022%=      5-min Rain = 0
KTA1 131636Z 19017KT 35/10 A2998 RMK A01 T03490097  RH  021%=      5-min Rain = 0
KTA1 131637Z 19015KT 35/10 A2998 RMK A01 T03500096  RH  021%=      5-min Rain = 0
KTA1 131638Z 19014KT 35/10 A2998 RMK A01 T03510097  RH  021%=      5-min Rain = 0
KTA1 131639Z 19014KT 35/10 A2998 RMK A01 T03510096  RH  021%=      5-min Rain = 0
KTA1 131640Z 21017KT 35/10 A2998 RMK A01 T03510095  RH  021%=      5-min Rain = 0
KTA1 131641Z 20014G19KT 35/09 A2998 RMK A01 T03510090  RH  020%=      5-min Rain = 0
KTA1 131642Z 20014KT 35/09 A2998 RMK A01 T03520092  RH  020%=      5-min Rain = 0
KTA1 131643Z 20014G20KT 35/09 A2998 RMK A01 T03530093  RH  020%=      5-min Rain = 0
KTA1 131644Z 19015G20KT 35/09 A2998 RMK A01 T03530091  RH  020%=      5-min Rain = 0
KTA1 131645Z 20013G19KT 35/09 A2998 RMK A01 T03540090  RH  020%=      5-min Rain = 0
KTA1 131646Z 20016KT 35/09 A2998 RMK A01 T03540092  RH  020%=      5-min Rain = 0
KTA1 131647Z 20015KT 35/09 A2997 RMK A01 T03540092  RH  020%=      5-min Rain = 0
KTA1 131648Z 19012G17KT 35/09 A2997 RMK A01 T03540094  RH  021%=      5-min Rain = 0
KTA1 131649Z 20016KT 35/09 A2997 RMK A01 T03540091  RH  020%=      5-min Rain = 0
KTA1 131650Z 20013G18KT 35/09 A2997 RMK A01 T03540089  RH  020%=      5-min Rain = 0
KTA1 131651Z 21015G20KT 36/09 A2997 RMK A01 T03550091  RH  020%=      5-min Rain = 0
KTA1 131652Z 21015KT 36/09 A2997 RMK A01 T03560088  RH  019%=      5-min Rain = 0
KTA1 131653Z 20013KT 36/09 A2997 RMK A01 T03550088  RH  020%=      5-min Rain = 0
KTA1 131654Z 19013KT 36/09 A2997 RMK A01 T03560090  RH  020%=      5-min Rain = 0
KTA1 131655Z 19014G19KT 36/09 A2997 RMK A01 T03560092  RH  020%=      5-min Rain = 0
KTA1 131656Z 19012G17KT 36/09 A2997 RMK A01 T03560092  RH  020%=      5-min Rain = 0
KTA1 131657Z 19016KT 36/09 A2997 RMK A01 T03560090  RH  020%=      5-min Rain = 0
KTA1 131658Z 19014G19KT 36/09 A2997 RMK A01 T03570086  RH  019%=      5-min Rain = 0
KTA1 131659Z 20014KT 36/09 A2997 RMK A01 T03570087  RH  019%=      5-min Rain = 0
KTA1 131700Z 19016KT 36/09 A2997 RMK A01 T03570085  RH  019%=      5-min Rain = 0
KTA1 131701Z 19018KT 36/09 A2997 RMK A01 T03570085  RH  019%=      5-min Rain = 0
KTA1 131702Z 20017KT 36/08 A2997 RMK A01 T03570084  RH  019%=      5-min Rain = 0
KTA1 131703Z 20015KT 36/09 A2997 RMK A01 T03570086  RH  019%=      5-min Rain = 0
KTA1 131704Z 19014KT 36/08 A2997 RMK A01 T03580084  RH  019%=      5-min Rain = 0
KTA1 131705Z 19015KT 36/08 A2997 RMK A01 T03590084  RH  019%=      5-min Rain = 0
KTA1 131706Z 20016KT 36/08 A2997 RMK A01 T03590083  RH  018%=      5-min Rain = 0
KTA1 131707Z 20015KT 36/08 A2997 RMK A01 T03590081  RH  018%=      5-min Rain = 0
KTA1 131708Z 20014KT 36/08 A2996 RMK A01 T03600082  RH  018%=      5-min Rain = 0
KTA1 131709Z 19013G20KT 36/08 A2996 RMK A01 T03590083  RH  018%=      5-min Rain = 0
KTA1 131710Z 19015G20KT 36/08 A2996 RMK A01 T03600084  RH  019%=      5-min Rain = 0
KTA1 131711Z 19016KT 36/08 A2996 RMK A01 T03600084  RH  018%=      5-min Rain = 0
KTA1 131712Z 19013G18KT 36/08 A2996 RMK A01 T03600084  RH  019%=      5-min Rain = 0
KTA1 131713Z 19014G19KT 36/09 A2996 RMK A01 T03610086  RH  019%=      5-min Rain = 0
KTA1 131714Z 20014KT 36/09 A2996 RMK A01 T03620085  RH  019%=      5-min Rain = 0
KTA1 131715Z 20015KT 36/08 A2996 RMK A01 T03630084  RH  018%=      5-min Rain = 0
KTA1 131716Z 19015KT 36/08 A2996 RMK A01 T03630080  RH  018%=      5-min Rain = 0
KTA1 131717Z 19013KT 36/08 A2996 RMK A01 T03640084  RH  018%=      5-min Rain = 0
KTA1 131718Z 18015KT 37/09 A2996 RMK A01 T03650085  RH  018%=      5-min Rain = 0
KTA1 131719Z 20014KT 36/09 A2996 RMK A01 T03640086  RH  018%=      5-min Rain = 0
KTA1 131720Z 20016G23KT 36/08 A2996 RMK A01 T03630080  RH  018%=      5-min Rain = 0
KTA1 131721Z 20016KT 37/08 A2996 RMK A01 T03650078  RH  017%=      5-min Rain = 0
KTA1 131722Z 20017G22KT 37/08 A2996 RMK A01 T03650077  RH  017%=      5-min Rain = 0
KTA1 131723Z 19014KT 37/08 A2996 RMK A01 T03650079  RH  017%=      5-min Rain = 0
KTA1 131724Z 18013KT 37/08 A2996 RMK A01 T03660082  RH  018%=      5-min Rain = 0
KTA1 131725Z 18015KT 37/08 A2996 RMK A01 T03670081  RH  017%=      5-min Rain = 0
KTA1 131726Z 18014KT 37/08 A2996 RMK A01 T03670079  RH  017%=      5-min Rain = 0
KTA1 131727Z 19012KT 37/08 A2996 RMK A01 T03670082  RH  018%=      5-min Rain = 0
KTA1 131728Z 19015G20KT 37/08 A2996 RMK A01 T03670081  RH  017%=      5-min Rain = 0
KTA1 131729Z 19014KT 37/08 A2996 RMK A01 T03670081  RH  017%=      5-min Rain = 0
KTA1 131730Z 20013KT 37/08 A2996 RMK A01 T03680081  RH  017%=      5-min Rain = 0
KTA1 131731Z 18014KT 37/08 A2996 RMK A01 T03670080  RH  017%=      5-min Rain = 0
KTA1 131732Z 19014G20KT 37/08 A2995 RMK A01 T03670081  RH  017%=      5-min Rain = 0
KTA1 131733Z 18016G22KT 37/08 A2995 RMK A01 T03670077  RH  017%=      5-min Rain = 0
KTA1 131734Z 20014KT 37/08 A2995 RMK A01 T03670077  RH  017%=      5-min Rain = 0
KTA1 131735Z 20017KT 37/07 A2995 RMK A01 T03680074  RH  017%=      5-min Rain = 0
KTA1 131736Z 19014KT 37/07 A2995 RMK A01 T03670072  RH  016%=      5-min Rain = 0
KTA1 131737Z 19014G19KT 37/08 A2995 RMK A01 T03670075  RH  017%=      5-min Rain = 0
KTA1 131738Z 19016KT 37/08 A2995 RMK A01 T03660079  RH  017%=      5-min Rain = 0
KTA1 131739Z 19016KT 37/08 A2995 RMK A01 T03670077  RH  017%=      5-min Rain = 0
KTA1 131740Z 19013KT 37/08 A2995 RMK A01 T03670076  RH  017%=      5-min Rain = 0
KTA1 131741Z 19016KT 37/08 A2995 RMK A01 T03670078  RH  017%=      5-min Rain = 0
KTA1 131742Z 19014KT 37/08 A2995 RMK A01 T03670078  RH  017%=      5-min Rain = 0
KTA1 131743Z 20018KT 37/08 A2995 RMK A01 T03670077  RH  017%=      5-min Rain = 0
KTA1 131744Z 20017KT 37/07 A2995 RMK A01 T03680072  RH  016%=      5-min Rain = 0
KTA1 131745Z 19013KT 37/07 A2995 RMK A01 T03680073  RH  017%=      5-min Rain = 0
KTA1 131746Z 19016KT 37/08 A2995 RMK A01 T03690077  RH  017%=      5-min Rain = 0
KTA1 131747Z 19017KT 37/08 A2995 RMK A01 T03680080  RH  017%=      5-min Rain = 0
KTA1 131748Z 20016G21KT 37/08 A2995 RMK A01 T03670080  RH  017%=      5-min Rain = 0
KTA1 131749Z 19017G23KT 37/08 A2995 RMK A01 T03680078  RH  017%=      5-min Rain = 0
KTA1 131750Z 19017KT 37/07 A2995 RMK A01 T03670073  RH  017%=      5-min Rain = 0
KTA1 131751Z 19011KT 37/08 A2995 RMK A01 T03680075  RH  017%=      5-min Rain = 0
KTA1 131752Z 20014KT 37/08 A2995 RMK A01 T03690078  RH  017%=      5-min Rain = 0
KTA1 131753Z 19012KT 37/08 A2995 RMK A01 T03700078  RH  017%=      5-min Rain = 0
KTA1 131754Z 19014KT 37/08 A2995 RMK A01 T03710080  RH  017%=      5-min Rain = 0
KTA1 131755Z 19014G19KT 37/08 A2994 RMK A01 T03720078  RH  017%=      5-min Rain = 0
KTA1 131756Z 19016G21KT 37/08 A2994 RMK A01 T03720078  RH  017%=      5-min Rain = 0
KTA1 131757Z 20014G20KT 37/08 A2994 RMK A01 T03720080  RH  017%=      5-min Rain = 0
KTA1 131758Z 20013KT 37/08 A2994 RMK A01 T03720082  RH  017%=      5-min Rain = 0
KTA1 131759Z 18014KT 37/08 A2994 RMK A01 T03720081  RH  017%=      5-min Rain = 0
KTA1 131800Z 19016KT 37/08 A2994 RMK A01 T03720079  RH  017%=      5-min Rain = 0
KTA1 131801Z 19017KT 37/08 A2994 RMK A01 T03720077  RH  017%=      5-min Rain = 0
KTA1 131802Z 19018G23KT 37/08 A2994 RMK A01 T03720075  RH  016%=      5-min Rain = 0
KTA1 131803Z 18017KT 37/07 A2994 RMK A01 T03710071  RH  016%=      5-min Rain = 0
KTA1 131804Z 18018KT 37/07 A2994 RMK A01 T03710071  RH  016%=      5-min Rain = 0
KTA1 131805Z 18014KT 37/07 A2994 RMK A01 T03710072  RH  016%=      5-min Rain = 0
KTA1 131806Z 18016KT 37/07 A2994 RMK A01 T03720073  RH  016%=      5-min Rain = 0
KTA1 131807Z 19016KT 37/07 A2994 RMK A01 T03720072  RH  016%=      5-min Rain = 0
KTA1 131808Z 18015G21KT 37/07 A2994 RMK A01 T03720074  RH  016%=      5-min Rain = 0
KTA1 131809Z 19018KT 37/07 A2994 RMK A01 T03720073  RH  016%=      5-min Rain = 0
KTA1 131810Z 19015KT 37/08 A2994 RMK A01 T03720075  RH  016%=      5-min Rain = 0
KTA1 131811Z 19015KT 37/08 A2994 RMK A01 T03730077  RH  016%=      5-min Rain = 0
KTA1 131812Z 19018KT 37/08 A2994 RMK A01 T03740077  RH  016%=      5-min Rain = 0
KTA1 131813Z 18014KT 37/08 A2994 RMK A01 T03730077  RH  016%=      5-min Rain = 0
KTA1 131814Z 18018KT 37/08 A2994 RMK A01 T03730076  RH  016%=      5-min Rain = 0
KTA1 131815Z 18015KT 37/07 A2994 RMK A01 T03740073  RH  016%=      5-min Rain = 0
KTA1 131816Z 19012KT 37/08 A2994 RMK A01 T03740075  RH  016%=      5-min Rain = 0
KTA1 131817Z 19016G21KT 38/08 A2994 RMK A01 T03760075  RH  016%=      5-min Rain = 0
KTA1 131818Z 19018KT 38/07 A2994 RMK A01 T03770073  RH  016%=      5-min Rain = 0
KTA1 131819Z 20016G21KT 38/07 A2994 RMK A01 T03780072  RH  015%=      5-min Rain = 0
KTA1 131820Z 19015KT 38/07 A2994 RMK A01 T03790072  RH  015%=      5-min Rain = 0
KTA1 131821Z 20012KT 38/07 A2994 RMK A01 T03800074  RH  016%=      5-min Rain = 0
KTA1 131822Z 19010KT 38/08 A2994 RMK A01 T03810075  RH  016%=      5-min Rain = 0
KTA1 131823Z 19011KT 38/08 A2994 RMK A01 T03830078  RH  016%=      5-min Rain = 0
KTA1 131824Z 19017KT 38/07 A2994 RMK A01 T03840073  RH  015%=      5-min Rain = 0
KTA1 131825Z 19016G21KT 38/07 A2994 RMK A01 T03830072  RH  015%=      5-min Rain = 0
KTA1 131826Z 20013G20KT 38/08 A2994 RMK A01 T03820075  RH  015%=      5-min Rain = 0
KTA1 131827Z 20013G19KT 38/08 A2994 RMK A01 T03840076  RH  015%=      5-min Rain = 0
KTA1 131828Z 19018KT 39/07 A2994 RMK A01 T03850070  RH  015%=      5-min Rain = 0
KTA1 131829Z 19017KT 38/07 A2994 RMK A01 T03830070  RH  015%=      5-min Rain = 0
KTA1 131830Z 19019KT 38/07 A2994 RMK A01 T03810069  RH  015%=      5-min Rain = 0
KTA1 131831Z 20017KT 38/07 A2994 RMK A01 T03800069  RH  015%=      5-min Rain = 0
KTA1 131832Z 20015KT 38/07 A2994 RMK A01 T03800068  RH  015%=      5-min Rain = 0
KTA1 131833Z 19014KT 38/07 A2994 RMK A01 T03800070  RH  015%=      5-min Rain = 0
KTA1 131834Z 19011KT 38/07 A2994 RMK A01 T03790071  RH  015%=      5-min Rain = 0
KTA1 131835Z 19016KT 38/07 A2994 RMK A01 T03790070  RH  015%=      5-min Rain = 0
KTA1 131836Z 20018KT 38/07 A2994 RMK A01 T03790065  RH  015%=      5-min Rain = 0
KTA1 131837Z 20016KT 38/06 A2994 RMK A01 T03790062  RH  014%=      5-min Rain = 0
KTA1 131838Z 20013KT 38/06 A2994 RMK A01 T03780061  RH  014%=      5-min Rain = 0
KTA1 131839Z 20012KT 38/06 A2994 RMK A01 T03780062  RH  014%=      5-min Rain = 0
KTA1 131840Z 20012G20KT 38/07 A2994 RMK A01 T03800065  RH  015%=      5-min Rain = 0
KTA1 131841Z 20017KT 38/06 A2994 RMK A01 T03810063  RH  014%=      5-min Rain = 0
KTA1 131842Z 20015G20KT 38/06 A2994 RMK A01 T03800062  RH  014%=      5-min Rain = 0
KTA1 131843Z 19012KT 38/07 A2994 RMK A01 T03800065  RH  015%=      5-min Rain = 0
KTA1 131844Z 20017KT 38/07 A2993 RMK A01 T03800067  RH  015%=      5-min Rain = 0
KTA1 131845Z 19017KT 38/06 A2993 RMK A01 T03800064  RH  015%=      5-min Rain = 0
KTA1 131846Z 20015KT 38/07 A2993 RMK A01 T03790065  RH  015%=      5-min Rain = 0
KTA1 131847Z 19014KT 38/07 A2994 RMK A01 T03790067  RH  015%=      5-min Rain = 0
KTA1 131848Z 19014KT 38/07 A2993 RMK A01 T03790067  RH  015%=      5-min Rain = 0
KTA1 131849Z 19014G19KT 38/07 A2993 RMK A01 T03790067  RH  015%=      5-min Rain = 0
KTA1 131850Z 19015KT 38/07 A2993 RMK A01 T03800068  RH  015%=      5-min Rain = 0
KTA1 131851Z 20013KT 38/07 A2993 RMK A01 T03790067  RH  015%=      5-min Rain = 0
KTA1 131852Z 19013KT 38/07 A2993 RMK A01 T03790067  RH  015%=      5-min Rain = 0
KTA1 131853Z 19012G17KT 38/07 A2993 RMK A01 T03790069  RH  015%=      5-min Rain = 0
KTA1 131854Z 19014KT 38/07 A2993 RMK A01 T03800070  RH  015%=      5-min Rain = 0
KTA1 131855Z 20017KT 38/07 A2993 RMK A01 T03810070  RH  015%=      5-min Rain = 0
KTA1 131856Z 21013KT 38/07 A2993 RMK A01 T03810070  RH  015%=      5-min Rain = 0
KTA1 131857Z 20016KT 38/07 A2993 RMK A01 T03810070  RH  015%=      5-min Rain = 0
KTA1 131858Z 20016KT 38/07 A2993 RMK A01 T03810069  RH  015%=      5-min Rain = 0
KTA1 131859Z 20014KT 38/07 A2993 RMK A01 T03800069  RH  015%=      5-min Rain = 0
KTA1 131900Z 20012KT 38/07 A2994 RMK A01 T03800070  RH  015%=      5-min Rain = 0
KTA1 131901Z 20011KT 38/07 A2994 RMK A01 T03800071  RH  015%=      5-min Rain = 0
KTA1 131902Z 21012KT 38/07 A2994 RMK A01 T03810073  RH  015%=      5-min Rain = 0
KTA1 131903Z 20014KT 38/07 A2994 RMK A01 T03810071  RH  015%=      5-min Rain = 0
KTA1 131904Z 20012KT 38/07 A2994 RMK A01 T03810071  RH  015%=      5-min Rain = 0
KTA1 131905Z 20009KT 38/07 A2994 RMK A01 T03800074  RH  015%=      5-min Rain = 0
KTA1 131906Z 20014KT 38/08 A2994 RMK A01 T03810075  RH  016%=      5-min Rain = 0
KTA1 131907Z 20015KT 38/07 A2994 RMK A01 T03810072  RH  015%=      5-min Rain = 0
KTA1 131908Z 20013KT 38/07 A2994 RMK A01 T03810072  RH  015%=      5-min Rain = 0
KTA1 131909Z 20013KT 38/07 A2994 RMK A01 T03810074  RH  015%=      5-min Rain = 0
KTA1 131910Z 19009KT 38/08 A2994 RMK A01 T03810075  RH  016%=      5-min Rain = 0
KTA1 131911Z 20012KT 38/08 A2994 RMK A01 T03820075  RH  016%=      5-min Rain = 0
KTA1 131912Z 21013KT 38/08 A2994 RMK A01 T03830075  RH  015%=      5-min Rain = 0
KTA1 131913Z 21014KT 38/07 A2994 RMK A01 T03820073  RH  015%=      5-min Rain = 0
KTA1 131914Z 20012KT 38/07 A2994 RMK A01 T03820073  RH  015%=      5-min Rain = 0
KTA1 131915Z 20010KT 38/08 A2994 RMK A01 T03810075  RH  016%=      5-min Rain = 0
KTA1 131916Z 19012KT 38/08 A2994 RMK A01 T03810077  RH  016%=      5-min Rain = 0
KTA1 131917Z 20011KT 38/08 A2994 RMK A01 T03810077  RH  016%=      5-min Rain = 0
KTA1 131918Z 20010KT 38/08 A2994 RMK A01 T03810077  RH  016%=      5-min Rain = 0
KTA1 131919Z 20011KT 38/08 A2994 RMK A01 T03820075  RH  015%=      5-min Rain = 0
KTA1 131920Z 19010KT 38/08 A2994 RMK A01 T03820075  RH  015%=      5-min Rain = 0
KTA1 131921Z 18009KT 38/08 A2994 RMK A01 T03810078  RH  016%=      5-min Rain = 0
KTA1 131922Z 18011KT 38/08 A2993 RMK A01 T03820079  RH  016%=      5-min Rain = 0
KTA1 131923Z 17011KT 38/08 A2993 RMK A01 T03820076  RH  016%=      5-min Rain = 0
KTA1 131924Z 18011KT 38/08 A2993 RMK A01 T03820076  RH  016%=      5-min Rain = 0
KTA1 131925Z 18009KT 38/08 A2993 RMK A01 T03820076  RH  016%=      5-min Rain = 0
KTA1 131926Z 18008KT 38/08 A2993 RMK A01 T03820079  RH  016%=      5-min Rain = 0
KTA1 131927Z 19009KT 38/08 A2993 RMK A01 T03820079  RH  016%=      5-min Rain = 0
KTA1 131928Z 20010KT 38/08 A2993 RMK A01 T03820077  RH  016%=      5-min Rain = 0
KTA1 131929Z 20011KT 38/08 A2993 RMK A01 T03830078  RH  016%=      5-min Rain = 0
KTA1 131930Z 19012KT 38/08 A2993 RMK A01 T03830076  RH  016%=      5-min Rain = 0
KTA1 131931Z 19009KT 38/08 A2993 RMK A01 T03820076  RH  016%=      5-min Rain = 0
KTA1 131932Z 19008KT 38/08 A2993 RMK A01 T03820078  RH  016%=      5-min Rain = 0
KTA1 131933Z 18009KT 38/08 A2993 RMK A01 T03820078  RH  016%=      5-min Rain = 0
KTA1 131934Z 18010KT 38/08 A2993 RMK A01 T03830079  RH  016%=      5-min Rain = 0
KTA1 131935Z 19009KT 38/08 A2993 RMK A01 T03830077  RH  016%=      5-min Rain = 0
KTA1 131936Z 19015KT 38/08 A2993 RMK A01 T03840077  RH  016%=      5-min Rain = 0
KTA1 131937Z 18014KT 38/08 A2993 RMK A01 T03830076  RH  016%=      5-min Rain = 0
KTA1 131938Z 18012KT 38/08 A2993 RMK A01 T03830076  RH  016%=      5-min Rain = 0
KTA1 131939Z 17011KT 38/08 A2992 RMK A01 T03830076  RH  015%=      5-min Rain = 0
KTA1 131940Z 19012KT 38/08 A2992 RMK A01 T03840078  RH  016%=      5-min Rain = 0
KTA1 131941Z 19011KT 38/08 A2992 RMK A01 T03840077  RH  016%=      5-min Rain = 0
KTA1 131942Z 19012KT 38/08 A2992 RMK A01 T03840076  RH  015%=      5-min Rain = 0
KTA1 131943Z 18013KT 38/07 A2992 RMK A01 T03840074  RH  015%=      5-min Rain = 0
KTA1 131944Z 19013KT 38/07 A2992 RMK A01 T03840072  RH  015%=      5-min Rain = 0
KTA1 131945Z 18010KT 38/07 A2992 RMK A01 T03840074  RH  015%=      5-min Rain = 0
KTA1 131946Z 18011KT 38/08 A2992 RMK A01 T03840077  RH  015%=      5-min Rain = 0
KTA1 131947Z 19010KT 39/08 A2992 RMK A01 T03850077  RH  015%=      5-min Rain = 0
KTA1 131948Z 19011KT 39/08 A2992 RMK A01 T03860078  RH  015%=      5-min Rain = 0
KTA1 131949Z 19009KT 39/08 A2992 RMK A01 T03860079  RH  016%=      5-min Rain = 0
KTA1 131950Z 20011KT 39/08 A2992 RMK A01 T03870078  RH  015%=      5-min Rain = 0
KTA1 131951Z 19012KT 39/07 A2992 RMK A01 T03880074  RH  015%=      5-min Rain = 0
KTA1 131952Z 19011KT 39/07 A2992 RMK A01 T03890073  RH  015%=      5-min Rain = 0
KTA1 131953Z 20011KT 39/07 A2992 RMK A01 T03890073  RH  015%=      5-min Rain = 0
KTA1 131954Z 19011KT 39/07 A2992 RMK A01 T03890073  RH  015%=      5-min Rain = 0
KTA1 131955Z 19011KT 39/07 A2992 RMK A01 T03890073  RH  015%=      5-min Rain = 0
KTA1 131956Z 20011KT 39/07 A2992 RMK A01 T03890073  RH  015%=      5-min Rain = 0
KTA1 131957Z 21011KT 39/07 A2992 RMK A01 T03900074  RH  015%=      5-min Rain = 0
KTA1 131958Z 21012KT 39/07 A2991 RMK A01 T03910070  RH  014%=      5-min Rain = 0
KTA1 131959Z 20012KT 39/07 A2991 RMK A01 T03920071  RH  014%=      5-min Rain = 0
KTA1 132000Z 20011KT 39/07 A2991 RMK A01 T03930072  RH  014%=      5-min Rain = 0
KTA1 132001Z 21012KT 39/07 A2991 RMK A01 T03940072  RH  014%=      5-min Rain = 0
KTA1 132002Z 22011KT 39/07 A2991 RMK A01 T03940072  RH  014%=      5-min Rain = 0
KTA1 132003Z 21011KT 40/07 A2991 RMK A01 T03960072  RH  014%=      5-min Rain = 0
KTA1 132004Z 19011KT 40/08 A2991 RMK A01 T03970075  RH  014%=      5-min Rain = 0
KTA1 132005Z 18011KT 40/07 A2991 RMK A01 T03980073  RH  014%=      5-min Rain = 0
KTA1 132006Z 17011KT 40/07 A2991 RMK A01 T03990071  RH  014%=      5-min Rain = 0
KTA1 132007Z 18012KT 40/07 A2991 RMK A01 T03990071  RH  014%=      5-min Rain = 0
KTA1 132008Z 18013KT 40/07 A2991 RMK A01 T04000071  RH  014%=      5-min Rain = 0
KTA1 132009Z 18013KT 40/07 A2991 RMK A01 T04010067  RH  013%=      5-min Rain = 0
KTA1 132010Z 19010KT 40/07 A2991 RMK A01 T04010067  RH  013%=      5-min Rain = 0
KTA1 132011Z 19012KT 40/07 A2991 RMK A01 T04010067  RH  013%=      5-min Rain = 0
KTA1 132012Z 21011KT 40/07 A2991 RMK A01 T04010065  RH  013%=      5-min Rain = 0
KTA1 132013Z 20008KT 40/07 A2991 RMK A01 T04010067  RH  013%=      5-min Rain = 0
KTA1 132014Z 19010KT 40/07 A2991 RMK A01 T04010069  RH  013%=      5-min Rain = 0
KTA1 132015Z 18011KT 40/07 A2991 RMK A01 T04020070  RH  013%=      5-min Rain = 0
KTA1 132016Z 20009KT 40/07 A2991 RMK A01 T04030068  RH  013%=      5-min Rain = 0
KTA1 132017Z 21009G14KT 40/07 A2991 RMK A01 T04020067  RH  013%=      5-min Rain = 0
KTA1 132018Z 22012KT 40/07 A2991 RMK A01 T04020067  RH  013%=      5-min Rain = 0
KTA1 132019Z 22011KT 40/06 A2991 RMK A01 T04020064  RH  013%=      5-min Rain = 0
KTA1 132020Z 21011KT 40/07 A2991 RMK A01 T04020066  RH  013%=      5-min Rain = 0
KTA1 132021Z 20011KT 40/07 A2991 RMK A01 T04020067  RH  013%=      5-min Rain = 0
KTA1 132022Z 20008KT 40/07 A2991 RMK A01 T04030070  RH  013%=      5-min Rain = 0
KTA1 132023Z 21008KT 41/07 A299 RMK A01 T04050069  RH  013%=      5-min Rain = 0
KTA1 132024Z 19012KT 41/07 A299 RMK A01 T04060068  RH  013%=      5-min Rain = 0
KTA1 132025Z 21011KT 41/07 A299 RMK A01 T04060066  RH  013%=      5-min Rain = 0
KTA1 132026Z 21009KT 40/06 A299 RMK A01 T04040061  RH  012%=      5-min Rain = 0
KTA1 132027Z 20009KT 40/06 A299 RMK A01 T04030059  RH  012%=      5-min Rain = 0
KTA1 132028Z 19012KT 40/06 A299 RMK A01 T04030058  RH  012%=      5-min Rain = 0
KTA1 132029Z 19008KT 40/06 A299 RMK A01 T04030059  RH  012%=      5-min Rain = 0
KTA1 132030Z 18009KT 41/06 A299 RMK A01 T04050059  RH  012%=      5-min Rain = 0
KTA1 132031Z 18009KT 41/05 A299 RMK A01 T04060053  RH  012%=      5-min Rain = 0
KTA1 132032Z 19010KT 41/05 A299 RMK A01 T04060054  RH  012%=      5-min Rain = 0
KTA1 132033Z 17010KT 41/06 A299 RMK A01 T04050056  RH  012%=      5-min Rain = 0
KTA1 132034Z 17009KT 40/05 A299 RMK A01 T04040054  RH  012%=      5-min Rain = 0
KTA1 132035Z 18007KT 40/06 A299 RMK A01 T04020056  RH  012%=      5-min Rain = 0
KTA1 132036Z 21009G14KT 40/06 A299 RMK A01 T04020058  RH  012%=      5-min Rain = 0
KTA1 132037Z 21012KT 40/06 A299 RMK A01 T04030056  RH  012%=      5-min Rain = 0
KTA1 132038Z 21012KT 40/06 A299 RMK A01 T04030055  RH  012%=      5-min Rain = 0
KTA1 132039Z 21012KT 40/06 A299 RMK A01 T04020055  RH  012%=      5-min Rain = 0
KTA1 132040Z 22010KT 40/06 A299 RMK A01 T04020055  RH  012%=      5-min Rain = 0
KTA1 132041Z 21009KT 40/05 A299 RMK A01 T04010054  RH  012%=      5-min Rain = 0
KTA1 132042Z 20009KT 40/06 A2989 RMK A01 T04010056  RH  012%=      5-min Rain = 0
KTA1 132043Z 21008KT 40/06 A2989 RMK A01 T04010060  RH  013%=      5-min Rain = 0
KTA1 132044Z 19009G16KT 40/06 A2989 RMK A01 T04020063  RH  013%=      5-min Rain = 0
KTA1 132045Z 19014KT 40/06 A2989 RMK A01 T04030061  RH  013%=      5-min Rain = 0
KTA1 132046Z 17012KT 40/06 A2989 RMK A01 T04030059  RH  012%=      5-min Rain = 0
KTA1 132047Z 17012KT 40/06 A2989 RMK A01 T04020056  RH  012%=      5-min Rain = 0
KTA1 132048Z 18010KT 40/06 A2989 RMK A01 T04020056  RH  012%=      5-min Rain = 0
KTA1 132049Z 19010KT 40/06 A2989 RMK A01 T04020056  RH  012%=      5-min Rain = 0
KTA1 132050Z 18010KT 40/06 A2989 RMK A01 T04010058  RH  012%=      5-min Rain = 0
KTA1 132051Z 19009KT 40/06 A2989 RMK A01 T04020060  RH  013%=      5-min Rain = 0
KTA1 132052Z 19010KT 40/06 A2989 RMK A01 T04040060  RH  012%=      5-min Rain = 0
KTA1 132053Z 18012KT 40/06 A2989 RMK A01 T04040058  RH  012%=      5-min Rain = 0
KTA1 132054Z 19011KT 40/06 A2989 RMK A01 T04040061  RH  012%=      5-min Rain = 0
KTA1 132055Z 19010KT 41/06 A2989 RMK A01 T04050060  RH  012%=      5-min Rain = 0
KTA1 132056Z 20011KT 41/06 A2989 RMK A01 T04060063  RH  012%=      5-min Rain = 0
KTA1 132057Z 19010KT 41/06 A2989 RMK A01 T04080063  RH  012%=      5-min Rain = 0
KTA1 132058Z 19010KT 41/06 A2988 RMK A01 T04090063  RH  012%=      5-min Rain = 0
KTA1 132059Z 19009KT 41/06 A2988 RMK A01 T04080064  RH  012%=      5-min Rain = 0
KTA1 132100Z 18008KT 41/07 A2988 RMK A01 T04080066  RH  013%=      5-min Rain = 0
KTA1 132101Z 18010KT 41/07 A2988 RMK A01 T04090065  RH  012%=      5-min Rain = 0
KTA1 132102Z 16012KT 41/06 A2988 RMK A01 T04110064  RH  012%=      5-min Rain = 0
KTA1 132103Z 16009KT 41/07 A2988 RMK A01 T04130065  RH  012%=      5-min Rain = 0
KTA1 132104Z 17008KT 42/07 A2988 RMK A01 T04150068  RH  012%=      5-min Rain = 0
KTA1 132105Z 18012KT 42/07 A2988 RMK A01 T04180065  RH  012%=      5-min Rain = 0
KTA1 132106Z 17012KT 42/07 A2988 RMK A01 T04200066  RH  012%=      5-min Rain = 0
KTA1 132107Z 18012KT 42/07 A2988 RMK A01 T04240066  RH  012%=      5-min Rain = 0
KTA1 132108Z 19013KT 43/06 A2988 RMK A01 T04260062  RH  011%=      5-min Rain = 0
KTA1 132109Z 20011KT 42/06 A2988 RMK A01 T04240058  RH  011%=      5-min Rain = 0
KTA1 132110Z 19010KT 42/06 A2988 RMK A01 T04220059  RH  011%=      5-min Rain = 0
KTA1 132111Z 18010KT 42/06 A2987 RMK A01 T04220060  RH  011%=      5-min Rain = 0
KTA1 132112Z 17011KT 42/06 A2987 RMK A01 T04220059  RH  011%=      5-min Rain = 0
KTA1 132113Z 18012KT 42/06 A2987 RMK A01 T04230061  RH  011%=      5-min Rain = 0
KTA1 132114Z 17014KT 42/06 A2987 RMK A01 T04230058  RH  011%=      5-min Rain = 0
KTA1 132115Z 17016KT 42/06 A2987 RMK A01 T04230058  RH  011%=      5-min Rain = 0
KTA1 132116Z 17012G17KT 42/06 A2987 RMK A01 T04240058  RH  011%=      5-min Rain = 0
KTA1 132117Z 16010KT 43/06 A2987 RMK A01 T04250060  RH  011%=      5-min Rain = 0
KTA1 132118Z 16011KT 43/06 A2987 RMK A01 T04270061  RH  011%=      5-min Rain = 0
KTA1 132119Z 18008KT 43/06 A2987 RMK A01 T04270059  RH  011%=      5-min Rain = 0
KTA1 132120Z 18010KT 43/06 A2987 RMK A01 T04260060  RH  011%=      5-min Rain = 0
KTA1 132121Z 17008KT 43/06 A2987 RMK A01 T04290056  RH  011%=      5-min Rain = 0
KTA1 132122Z 17009G19KT 43/06 A2987 RMK A01 T04290058  RH  011%=      5-min Rain = 0
KTA1 132123Z 18016KT 43/06 A2987 RMK A01 T04290057  RH  011%=      5-min Rain = 0
KTA1 132124Z 18014KT 43/05 A2987 RMK A01 T04270054  RH  011%=      5-min Rain = 0
KTA1 132125Z 17010KT 43/05 A2987 RMK A01 T04260053  RH  011%=      5-min Rain = 0
KTA1 132126Z 18007KT 43/06 A2987 RMK A01 T04260055  RH  011%=      5-min Rain = 0
KTA1 132127Z 18016KT 43/06 A2987 RMK A01 T04270057  RH  011%=      5-min Rain = 0
KTA1 132128Z 19015KT 43/06 A2987 RMK A01 T04290057  RH  011%=      5-min Rain = 0
KTA1 132129Z 19010KT 43/06 A2987 RMK A01 T04280055  RH  011%=      5-min Rain = 0
KTA1 132130Z 18014KT 43/06 A2987 RMK A01 T04280056  RH  011%=      5-min Rain = 0
KTA1 132131Z 19010KT 43/05 A2986 RMK A01 T04280054  RH  011%=      5-min Rain = 0
KTA1 132132Z 19011G16KT 43/05 A2986 RMK A01 T04260054  RH  011%=      5-min Rain = 0
KTA1 132133Z 18012G18KT 43/06 A2986 RMK A01 T04260057  RH  011%=      5-min Rain = 0
KTA1 132134Z 20016KT 43/05 A2986 RMK A01 T04280053  RH  010%=      5-min Rain = 0
KTA1 132135Z 21017KT 43/05 A2986 RMK A01 T04280053  RH  010%=      5-min Rain = 0
KTA1 132136Z 20014KT 43/05 A2986 RMK A01 T04270052  RH  010%=      5-min Rain = 0
KTA1 132137Z 21012KT 43/05 A2986 RMK A01 T04260053  RH  010%=      5-min Rain = 0
KTA1 132138Z 19012KT 43/05 A2986 RMK A01 T04260053  RH  011%=      5-min Rain = 0
KTA1 132139Z 21011KT 42/05 A2986 RMK A01 T04230050  RH  010%=      5-min Rain = 0
KTA1 132140Z 20010KT 42/05 A2986 RMK A01 T04210050  RH  011%=      5-min Rain = 0
KTA1 132141Z 20009KT 42/05 A2986 RMK A01 T04210050  RH  011%=      5-min Rain = 0
KTA1 132142Z 21009KT 42/05 A2986 RMK A01 T04220053  RH  011%=      5-min Rain = 0
KTA1 132143Z 20012G17KT 43/06 A2986 RMK A01 T04270056  RH  011%=      5-min Rain = 0
KTA1 132144Z 21012KT 43/05 A2986 RMK A01 T04290052  RH  010%=      5-min Rain = 0
KTA1 132145Z 21012KT 43/05 A2986 RMK A01 T04280052  RH  010%=      5-min Rain = 0
KTA1 132146Z 21014KT 43/05 A2986 RMK A01 T04290053  RH  010%=      5-min Rain = 0
KTA1 132147Z 22013KT 43/05 A2985 RMK A01 T04300051  RH  010%=      5-min Rain = 0
KTA1 132148Z 23014KT 43/05 A2985 RMK A01 T04300051  RH  010%=      5-min Rain = 0
KTA1 132149Z 22014G19KT 43/05 A2985 RMK A01 T04280050  RH  010%=      5-min Rain = 0
KTA1 132150Z 21015KT 43/05 A2985 RMK A01 T04270050  RH  010%=      5-min Rain = 0
KTA1 132151Z 23014G19KT 43/05 A2985 RMK A01 T04260049  RH  010%=      5-min Rain = 0
KTA1 132152Z 21015KT 43/05 A2985 RMK A01 T04260050  RH  010%=      5-min Rain = 0
KTA1 132153Z 19012KT 43/05 A2986 RMK A01 T04270052  RH  010%=      5-min Rain = 0
KTA1 132154Z 19012KT 43/05 A2985 RMK A01 T04280054  RH  011%=      5-min Rain = 0
KTA1 132155Z 18012KT 43/06 A2985 RMK A01 T04300058  RH  011%=      5-min Rain = 0
KTA1 132156Z 18014KT 43/06 A2985 RMK A01 T04300058  RH  011%=      5-min Rain = 0
KTA1 132157Z 17012KT 43/06 A2985 RMK A01 T04290055  RH  010%=      5-min Rain = 0
KTA1 132158Z 19014G19KT 43/06 A2985 RMK A01 T04270055  RH  011%=      5-min Rain = 0
KTA1 132159Z 19012G18KT 43/05 A2985 RMK A01 T04280054  RH  011%=      5-min Rain = 0
KTA1 132200Z 20012KT 43/06 A2985 RMK A01 T04290056  RH  011%=      5-min Rain = 0
KTA1 132201Z 20014KT 43/06 A2985 RMK A01 T04310055  RH  010%=      5-min Rain = 0
KTA1 132202Z 19013KT 43/05 A2985 RMK A01 T04290052  RH  010%=      5-min Rain = 0
KTA1 132203Z 19013G18KT 43/05 A2985 RMK A01 T04280052  RH  010%=      5-min Rain = 0
KTA1 132204Z 18013KT 43/05 A2985 RMK A01 T04270053  RH  010%=      5-min Rain = 0
KTA1 132205Z 19012KT 43/05 A2985 RMK A01 T04250053  RH  011%=      5-min Rain = 0
KTA1 132206Z 19010KT 42/05 A2985 RMK A01 T04220051  RH  011%=      5-min Rain = 0
KTA1 132207Z 21011KT 42/05 A2985 RMK A01 T04190049  RH  011%=      5-min Rain = 0
KTA1 132208Z 18008KT 42/05 A2985 RMK A01 T04170051  RH  011%=      5-min Rain = 0
KTA1 132209Z 19011G17KT 42/05 A2985 RMK A01 T04190054  RH  011%=      5-min Rain = 0
KTA1 132210Z 19014KT 42/06 A2985 RMK A01 T04230056  RH  011%=      5-min Rain = 0
KTA1 132211Z 20014KT 43/06 A2985 RMK A01 T04260055  RH  011%=      5-min Rain = 0
KTA1 132212Z 19016KT 43/05 A2985 RMK A01 T04270053  RH  010%=      5-min Rain = 0
KTA1 132213Z 19013KT 43/05 A2985 RMK A01 T04260052  RH  010%=      5-min Rain = 0
KTA1 132214Z 21014KT 43/05 A2985 RMK A01 T04250052  RH  011%=      5-min Rain = 0
KTA1 132215Z 20012KT 43/05 A2985 RMK A01 T04260051  RH  010%=      5-min Rain = 0
KTA1 132216Z 19010KT 43/05 A2985 RMK A01 T04260050  RH  010%=      5-min Rain = 0
KTA1 132217Z 19010KT 43/05 A2985 RMK A01 T04260053  RH  011%=      5-min Rain = 0
KTA1 132218Z 20008KT 43/05 A2984 RMK A01 T04280052  RH  010%=      5-min Rain = 0
KTA1 132219Z 20010KT 43/05 A2984 RMK A01 T04280053  RH  010%=      5-min Rain = 0
KTA1 132220Z 18014KT 43/06 A2984 RMK A01 T04300055  RH  010%=      5-min Rain = 0
KTA1 132221Z 18012KT 43/05 A2984 RMK A01 T04290053  RH  010%=      5-min Rain = 0
KTA1 132222Z 18009G15KT 43/05 A2984 RMK A01 T04250053  RH  011%=      5-min Rain = 0
KTA1 132223Z 20011KT 42/05 A2984 RMK A01 T04240054  RH  011%=      5-min Rain = 0
KTA1 132224Z 20010KT 43/05 A2984 RMK A01 T04250053  RH  011%=      5-min Rain = 0
KTA1 132225Z 21013KT 43/05 A2984 RMK A01 T04260053  RH  011%=      5-min Rain = 0
KTA1 132226Z 21013KT 43/05 A2984 RMK A01 T04270049  RH  010%=      5-min Rain = 0
KTA1 132227Z 22013KT 43/05 A2984 RMK A01 T04260049  RH  010%=      5-min Rain = 0
KTA1 132228Z 21015KT 43/05 A2984 RMK A01 T04260050  RH  010%=      5-min Rain = 0
KTA1 132229Z 20010KT 43/05 A2984 RMK A01 T04270051  RH  010%=      5-min Rain = 0
KTA1 132230Z 20010KT 43/05 A2984 RMK A01 T04280050  RH  010%=      5-min Rain = 0
KTA1 132231Z 21010KT 43/05 A2984 RMK A01 T04280051  RH  010%=      5-min Rain = 0
KTA1 132232Z 19011KT 43/05 A2984 RMK A01 T04280052  RH  010%=      5-min Rain = 0
KTA1 132233Z 19011G16KT 43/05 A2984 RMK A01 T04280051  RH  010%=      5-min Rain = 0
KTA1 132234Z 18014KT 43/05 A2984 RMK A01 T04270052  RH  010%=      5-min Rain = 0
KTA1 132235Z 19013KT 43/05 A2984 RMK A01 T04280049  RH  010%=      5-min Rain = 0
KTA1 132236Z 20015G23KT 43/05 A2984 RMK A01 T04280050  RH  010%=      5-min Rain = 0
KTA1 132237Z 20017G22KT 43/05 A2984 RMK A01 T04280048  RH  010%=      5-min Rain = 0
KTA1 132238Z 20013KT 43/05 A2984 RMK A01 T04270046  RH  010%=      5-min Rain = 0
KTA1 132239Z 19013KT 43/05 A2984 RMK A01 T04260047  RH  010%=      5-min Rain = 0
KTA1 132240Z 19012KT 43/05 A2984 RMK A01 T04280049  RH  010%=      5-min Rain = 0
KTA1 132241Z 21014G19KT 43/05 A2984 RMK A01 T04280049  RH  010%=      5-min Rain = 0
KTA1 132242Z 20013KT 43/05 A2984 RMK A01 T04270047  RH  010%=      5-min Rain = 0
KTA1 132243Z 21009KT 43/05 A2984 RMK A01 T04270048  RH  010%=      5-min Rain = 0
KTA1 132244Z 20014KT 43/05 A2984 RMK A01 T04270048  RH  010%=      5-min Rain = 0
KTA1 132245Z 21016KT 43/05 A2984 RMK A01 T04260048  RH  010%=      5-min Rain = 0
KTA1 132246Z 20011KT 43/05 A2984 RMK A01 T04270048  RH  010%=      5-min Rain = 0
KTA1 132247Z 21011KT 43/05 A2983 RMK A01 T04270049  RH  010%=      5-min Rain = 0
KTA1 132248Z 21013KT 43/05 A2983 RMK A01 T04290050  RH  010%=      5-min Rain = 0
KTA1 132249Z 20012KT 43/05 A2983 RMK A01 T04280048  RH  010%=      5-min Rain = 0
KTA1 132250Z 21010KT 43/05 A2983 RMK A01 T04280048  RH  010%=      5-min Rain = 0
KTA1 132251Z 22010KT 43/05 A2983 RMK A01 T04270047  RH  010%=      5-min Rain = 0
KTA1 132252Z 21010KT 43/05 A2983 RMK A01 T04270048  RH  010%=      5-min Rain = 0
KTA1 132253Z 21011KT 43/05 A2983 RMK A01 T04260049  RH  010%=      5-min Rain = 0
KTA1 132254Z 21009KT 43/05 A2983 RMK A01 T04250052  RH  011%=      5-min Rain = 0
KTA1 132255Z 20010G15KT 42/05 A2983 RMK A01 T04230052  RH  011%=      5-min Rain = 0
KTA1 132256Z 22012G17KT 43/06 A2983 RMK A01 T04250055  RH  011%=      5-min Rain = 0
KTA1 132257Z 23015KT 43/05 A2983 RMK A01 T04260052  RH  010%=      5-min Rain = 0
KTA1 132258Z 23010G17KT 43/05 A2983 RMK A01 T04250048  RH  010%=      5-min Rain = 0
KTA1 132259Z 20013G19KT 42/05 A2983 RMK A01 T04240049  RH  010%=      5-min Rain = 0
KTA1 132300Z 20010G15KT 42/05 A2983 RMK A01 T04230050  RH  010%=      5-min Rain = 0
KTA1 132301Z 20009KT 43/05 A2983 RMK A01 T04250051  RH  010%=      5-min Rain = 0
KTA1 132302Z 19011KT 43/05 A2983 RMK A01 T04260052  RH  010%=      5-min Rain = 0
KTA1 132303Z 20011KT 43/05 A2983 RMK A01 T04260052  RH  010%=      5-min Rain = 0
KTA1 132304Z 19010KT 43/05 A2983 RMK A01 T04260051  RH  010%=      5-min Rain = 0
KTA1 132305Z 19010KT 43/05 A2983 RMK A01 T04280053  RH  010%=      5-min Rain = 0
KTA1 132306Z 19009KT 43/05 A2983 RMK A01 T04270051  RH  010%=      5-min Rain = 0
KTA1 132307Z 21012KT 43/05 A2983 RMK A01 T04260053  RH  010%=      5-min Rain = 0
KTA1 132308Z 21013KT 43/05 A2983 RMK A01 T04260053  RH  011%=      5-min Rain = 0
KTA1 132309Z 20012KT 43/05 A2983 RMK A01 T04250052  RH  010%=      5-min Rain = 0
KTA1 132310Z 20011G16KT 43/05 A2983 RMK A01 T04250053  RH  011%=      5-min Rain = 0
KTA1 132311Z 18013KT 43/05 A2983 RMK A01 T04260053  RH  010%=      5-min Rain = 0
KTA1 132312Z 21014G20KT 43/05 A2983 RMK A01 T04260051  RH  010%=      5-min Rain = 0
KTA1 132313Z 20010KT 43/05 A2983 RMK A01 T04260051  RH  010%=      5-min Rain = 0
KTA1 132314Z 21011KT 43/05 A2983 RMK A01 T04270051  RH  010%=      5-min Rain = 0
KTA1 132315Z 20010KT 43/05 A2983 RMK A01 T04270050  RH  010%=      5-min Rain = 0
KTA1 132316Z 20009G16KT 43/05 A2983 RMK A01 T04270051  RH  010%=      5-min Rain = 0
KTA1 132317Z 17013G19KT 43/05 A2983 RMK A01 T04280053  RH  010%=      5-min Rain = 0
KTA1 132318Z 18016G22KT 43/06 A2982 RMK A01 T04280055  RH  011%=      5-min Rain = 0
KTA1 132319Z 19012KT 43/05 A2982 RMK A01 T04270053  RH  010%=      5-min Rain = 0
KTA1 132320Z 19013KT 43/05 A2982 RMK A01 T04280053  RH  010%=      5-min Rain = 0
KTA1 132321Z 20013KT 43/05 A2983 RMK A01 T04290052  RH  010%=      5-min Rain = 0
KTA1 132322Z 20013KT 43/05 A2982 RMK A01 T04280048  RH  010%=      5-min Rain = 0
KTA1 132323Z 20012KT 43/05 A2982 RMK A01 T04260047  RH  010%=      5-min Rain = 0
KTA1 132324Z 21015KT 42/05 A2982 RMK A01 T04240047  RH  010%=      5-min Rain = 0
KTA1 132325Z 22014KT 42/05 A2982 RMK A01 T04240046  RH  010%=      5-min Rain = 0
KTA1 132326Z 23013KT 42/05 A2982 RMK A01 T04230046  RH  010%=      5-min Rain = 0
KTA1 132327Z 21012KT 42/05 A2982 RMK A01 T04220046  RH  010%=      5-min Rain = 0
KTA1 132328Z 21011KT 42/05 A2983 RMK A01 T04230047  RH  010%=      5-min Rain = 0
KTA1 132329Z 20015KT 42/05 A2983 RMK A01 T04240047  RH  010%=      5-min Rain = 0
KTA1 132330Z 20013KT 42/05 A2983 RMK A01 T04230046  RH  010%=      5-min Rain = 0
KTA1 132331Z 20012KT 42/05 A2983 RMK A01 T04230046  RH  010%=      5-min Rain = 0
KTA1 132332Z 21012KT 42/05 A2983 RMK A01 T04230046  RH  010%=      5-min Rain = 0
KTA1 132333Z 21013KT 42/05 A2982 RMK A01 T04220045  RH  010%=      5-min Rain = 0
KTA1 132334Z 23011KT 42/05 A2982 RMK A01 T04220045  RH  010%=      5-min Rain = 0
KTA1 132335Z 21012KT 42/05 A2982 RMK A01 T04230046  RH  010%=      5-min Rain = 0
KTA1 132336Z 20011KT 42/05 A2983 RMK A01 T04230047  RH  010%=      5-min Rain = 0
KTA1 132337Z 19012KT 42/05 A2982 RMK A01 T04220047  RH  010%=      5-min Rain = 0
KTA1 132338Z 19011KT 42/05 A2983 RMK A01 T04220048  RH  010%=      5-min Rain = 0
KTA1 132339Z 17011KT 42/05 A2982 RMK A01 T04220051  RH  011%=      5-min Rain = 0
KTA1 132340Z 19013KT 42/05 A2982 RMK A01 T04210052  RH  011%=      5-min Rain = 0
KTA1 132341Z 19010G16KT 42/05 A2982 RMK A01 T04200054  RH  011%=      5-min Rain = 0
KTA1 132342Z 19010KT 42/06 A2982 RMK A01 T04210057  RH  011%=      5-min Rain = 0
KTA1 132343Z 18013G18KT 42/06 A2982 RMK A01 T04220058  RH  011%=      5-min Rain = 0
KTA1 132344Z 19016KT 42/06 A2982 RMK A01 T04230056  RH  011%=      5-min Rain = 0
KTA1 132345Z 19014KT 42/06 A2982 RMK A01 T04230055  RH  011%=      5-min Rain = 0
KTA1 132346Z 18017KT 42/05 A2982 RMK A01 T04220053  RH  011%=      5-min Rain = 0
KTA1 132347Z 18016KT 42/05 A2982 RMK A01 T04210051  RH  011%=      5-min Rain = 0
KTA1 132348Z 19015KT 42/05 A2982 RMK A01 T04200051  RH  011%=      5-min Rain = 0
KTA1 132349Z 20015KT 42/05 A2982 RMK A01 T04200052  RH  011%=      5-min Rain = 0
KTA1 132350Z 19015KT 42/05 A2982 RMK A01 T04190052  RH  011%=      5-min Rain = 0
KTA1 132351Z 18013KT 42/05 A2982 RMK A01 T04190052  RH  011%=      5-min Rain = 0
KTA1 132352Z 18010KT 42/05 A2982 RMK A01 T04190053  RH  011%=      5-min Rain = 0
KTA1 132353Z 17011G17KT 42/05 A2982 RMK A01 T04200054  RH  011%=      5-min Rain = 0
KTA1 132354Z 17016G21KT 42/06 A2982 RMK A01 T04200055  RH  011%=      5-min Rain = 0
KTA1 132355Z 18015KT 42/05 A2982 RMK A01 T04190051  RH  011%=      5-min Rain = 0
KTA1 132356Z 18011KT 42/05 A2982 RMK A01 T04180051  RH  011%=      5-min Rain = 0
KTA1 132357Z 17011KT 42/05 A2982 RMK A01 T04170054  RH  011%=      5-min Rain = 0
KTA1 132358Z 17014KT 42/06 A2982 RMK A01 T04180056  RH  011%=      5-min Rain = 0
KTA1 132359Z 17010KT 42/06 A2982 RMK A01 T04180056  RH  011%=      5-min Rain = 0
KTA1 140000Z 16014G19KT 42/06 A2982 RMK A01 T04180057  RH  011%=      5-min Rain = 0
KTA1 140001Z 18013KT 42/06 A2982 RMK A01 T04180055  RH  011%=      5-min Rain = 0
KTA1 140002Z 18014KT 42/05 A2982 RMK A01 T04180052  RH  011%=      5-min Rain = 0
KTA1 140003Z 18013KT 42/05 A2982 RMK A01 T04170054  RH  011%=      5-min Rain = 0
KTA1 140004Z 17015KT 42/05 A2982 RMK A01 T04160054  RH  011%=      5-min Rain = 0
KTA1 140005Z 18012G17KT 41/06 A2982 RMK A01 T04140055  RH  011%=      5-min Rain = 0
KTA1 140006Z 18015KT 41/06 A2982 RMK A01 T04130055  RH  011%=      5-min Rain = 0
KTA1 140007Z 17015KT 41/05 A2982 RMK A01 T04120054  RH  011%=      5-min Rain = 0
KTA1 140008Z 17015KT 41/05 A2982 RMK A01 T04110054  RH  011%=      5-min Rain = 0
KTA1 140009Z 19012G19KT 41/05 A2982 RMK A01 T04110054  RH  012%=      5-min Rain = 0
KTA1 140010Z 20017KT 41/05 A2982 RMK A01 T04110053  RH  011%=      5-min Rain = 0
KTA1 140011Z 20017G22KT 41/05 A2982 RMK A01 T04110052  RH  011%=      5-min Rain = 0
KTA1 140012Z 18013KT 41/05 A2982 RMK A01 T04120051  RH  011%=      5-min Rain = 0
KTA1 140013Z 17014G20KT 41/05 A2982 RMK A01 T04120054  RH  011%=      5-min Rain = 0
KTA1 140014Z 18015G20KT 41/06 A2982 RMK A01 T04140055  RH  011%=      5-min Rain = 0
KTA1 140015Z 18014KT 41/05 A2982 RMK A01 T04140054  RH  011%=      5-min Rain = 0
KTA1 140016Z 18013G18KT 41/05 A2982 RMK A01 T04140054  RH  011%=      5-min Rain = 0
KTA1 140017Z 17012KT 41/06 A2982 RMK A01 T04140055  RH  011%=      5-min Rain = 0
KTA1 140018Z 18013KT 41/06 A2982 RMK A01 T04140056  RH  011%=      5-min Rain = 0
KTA1 140019Z 18015KT 41/06 A2982 RMK A01 T04140056  RH  011%=      5-min Rain = 0
KTA1 140020Z 18017KT 41/05 A2982 RMK A01 T04140054  RH  011%=      5-min Rain = 0
KTA1 140021Z 17015KT 41/05 A2982 RMK A01 T04130053  RH  011%=      5-min Rain = 0
KTA1 140022Z 17013KT 41/06 A2982 RMK A01 T04120055  RH  011%=      5-min Rain = 0
KTA1 140023Z 17013KT 41/05 A2982 RMK A01 T04110054  RH  011%=      5-min Rain = 0
KTA1 140024Z 18010KT 41/05 A2982 RMK A01 T04090054  RH  012%=      5-min Rain = 0
KTA1 140025Z 17014KT 41/06 A2982 RMK A01 T04080055  RH  012%=      5-min Rain = 0
KTA1 140026Z 18013G18KT 41/06 A2982 RMK A01 T04080055  RH  012%=      5-min Rain = 0
KTA1 140027Z 18014KT 41/06 A2982 RMK A01 T04080056  RH  012%=      5-min Rain = 0
KTA1 140028Z 18012KT 41/05 A2982 RMK A01 T04080054  RH  012%=      5-min Rain = 0
KTA1 140029Z 19012G17KT 41/05 A2982 RMK A01 T04080053  RH  012%=      5-min Rain = 0
KTA1 140030Z 18013KT 41/05 A2982 RMK A01 T04090053  RH  012%=      5-min Rain = 0
KTA1 140031Z 18013G19KT 41/05 A2982 RMK A01 T04090054  RH  012%=      5-min Rain = 0
KTA1 140032Z 17013KT 41/05 A2982 RMK A01 T04100054  RH  012%=      5-min Rain = 0
KTA1 140033Z 17014G19KT 41/06 A2982 RMK A01 T04100055  RH  012%=      5-min Rain = 0
KTA1 140034Z 18013KT 41/05 A2982 RMK A01 T04100054  RH  012%=      5-min Rain = 0
KTA1 140035Z 17012KT 41/05 A2982 RMK A01 T04100054  RH  012%=      5-min Rain = 0
KTA1 140036Z 18015KT 41/05 A2982 RMK A01 T04100054  RH  012%=      5-min Rain = 0
KTA1 140037Z 17013G19KT 41/05 A2982 RMK A01 T04100053  RH  011%=      5-min Rain = 0
KTA1 140038Z 18014KT 41/06 A2982 RMK A01 T04090055  RH  012%=      5-min Rain = 0
KTA1 140039Z 17013KT 41/06 A2982 RMK A01 T04090055  RH  012%=      5-min Rain = 0
KTA1 140040Z 17013KT 41/06 A2982 RMK A01 T04080056  RH  012%=      5-min Rain = 0
KTA1 140041Z 17011KT 41/06 A2982 RMK A01 T04080056  RH  012%=      5-min Rain = 0
KTA1 140042Z 17013G18KT 41/06 A2982 RMK A01 T04080056  RH  012%=      5-min Rain = 0
KTA1 140043Z 17013KT 41/06 A2982 RMK A01 T04080055  RH  012%=      5-min Rain = 0
KTA1 140044Z 16012G17KT 41/06 A2982 RMK A01 T04080055  RH  012%=      5-min Rain = 0
KTA1 140045Z 17015G20KT 41/06 A2982 RMK A01 T04070055  RH  012%=      5-min Rain = 0
KTA1 140046Z 17013G18KT 41/05 A2982 RMK A01 T04070054  RH  012%=      5-min Rain = 0
KTA1 140047Z 17013KT 41/06 A2982 RMK A01 T04070055  RH  012%=      5-min Rain = 0
KTA1 140048Z 17011KT 41/06 A2982 RMK A01 T04060056  RH  012%=      5-min Rain = 0
KTA1 140049Z 17011G18KT 41/06 A2983 RMK A01 T04060057  RH  012%=      5-min Rain = 0
KTA1 140050Z 17017KT 41/06 A2982 RMK A01 T04060055  RH  012%=      5-min Rain = 0
KTA1 140051Z 17015KT 41/06 A2982 RMK A01 T04060055  RH  012%=      5-min Rain = 0
KTA1 140052Z 17017G23KT 41/05 A2982 RMK A01 T04050054  RH  012%=      5-min Rain = 0
KTA1 140053Z 16015G21KT 41/05 A2982 RMK A01 T04050052  RH  012%=      5-min Rain = 0
KTA1 140054Z 17015G20KT 40/05 A2982 RMK A01 T04040054  RH  012%=      5-min Rain = 0
KTA1 140055Z 17017KT 40/05 A2982 RMK A01 T04040053  RH  012%=      5-min Rain = 0
KTA1 140056Z 17016KT 40/05 A2982 RMK A01 T04030053  RH  012%=      5-min Rain = 0
KTA1 140057Z 17012KT 40/05 A2982 RMK A01 T04030054  RH  012%=      5-min Rain = 0
KTA1 140058Z 17014KT 40/06 A2982 RMK A01 T04020055  RH  012%=      5-min Rain = 0
KTA1 140059Z 16016KT 40/05 A2982 RMK A01 T04020053  RH  012%=      5-min Rain = 0
KTA1 140100Z 17013KT 40/05 A2982 RMK A01 T04020052  RH  012%=      5-min Rain = 0
KTA1 140101Z 17015KT 40/05 A2982 RMK A01 T04010053  RH  012%=      5-min Rain = 0
KTA1 140102Z 17015KT 40/05 A2982 RMK A01 T04010053  RH  012%=      5-min Rain = 0
KTA1 140103Z 16013KT 40/05 A2982 RMK A01 T04010052  RH  012%=      5-min Rain = 0
KTA1 140104Z 17013KT 40/05 A2982 RMK A01 T04000053  RH  012%=      5-min Rain = 0
KTA1 140105Z 17012KT 40/05 A2982 RMK A01 T04000052  RH  012%=      5-min Rain = 0
KTA1 140106Z 17011KT 40/05 A2982 RMK A01 T04000053  RH  012%=      5-min Rain = 0
KTA1 140107Z 17012KT 40/05 A2982 RMK A01 T03990053  RH  012%=      5-min Rain = 0
KTA1 140108Z 17014KT 40/05 A2982 RMK A01 T03980053  RH  012%=      5-min Rain = 0
KTA1 140109Z 17013KT 40/05 A2982 RMK A01 T03980052  RH  012%=      5-min Rain = 0
KTA1 140110Z 17011KT 40/05 A2982 RMK A01 T03980052  RH  012%=      5-min Rain = 0
KTA1 140111Z 17013G18KT 40/05 A2982 RMK A01 T03970053  RH  012%=      5-min Rain = 0
KTA1 140112Z 17015KT 40/05 A2982 RMK A01 T03970052  RH  012%=      5-min Rain = 0
KTA1 140113Z 17014KT 40/05 A2982 RMK A01 T03970051  RH  012%=      5-min Rain = 0
KTA1 140114Z 17013KT 40/05 A2982 RMK A01 T03970050  RH  012%=      5-min Rain = 0
KTA1 140115Z 17013G18KT 40/05 A2982 RMK A01 T03970050  RH  012%=      5-min Rain = 0
KTA1 140116Z 17016KT 40/05 A2982 RMK A01 T03960049  RH  012%=      5-min Rain = 0
KTA1 140117Z 17016KT 40/05 A2982 RMK A01 T03970049  RH  012%=      5-min Rain = 0
KTA1 140118Z 17015KT 40/05 A2982 RMK A01 T03970048  RH  012%=      5-min Rain = 0
KTA1 140119Z 17013KT 40/05 A2982 RMK A01 T03960048  RH  012%=      5-min Rain = 0
KTA1 140120Z 17012KT 40/05 A2982 RMK A01 T03960049  RH  012%=      5-min Rain = 0
KTA1 140121Z 17013KT 40/05 A2982 RMK A01 T03950049  RH  012%=      5-min Rain = 0
KTA1 140122Z 17011KT 39/05 A2982 RMK A01 T03940050  RH  012%=      5-min Rain = 0
KTA1 140123Z 17013G18KT 39/05 A2982 RMK A01 T03930051  RH  012%=      5-min Rain = 0
KTA1 140124Z 17011KT 39/05 A2982 RMK A01 T03920050  RH  012%=      5-min Rain = 0
KTA1 140125Z 17014G19KT 39/05 A2982 RMK A01 T03910049  RH  012%=      5-min Rain = 0
KTA1 140126Z 16016KT 39/05 A2982 RMK A01 T03910048  RH  012%=      5-min Rain = 0
KTA1 140127Z 16015KT 39/05 A2982 RMK A01 T03920048  RH  012%=      5-min Rain = 0
KTA1 140128Z 17013KT 39/05 A2982 RMK A01 T03920048  RH  012%=      5-min Rain = 0
KTA1 140129Z 17011KT 39/05 A2982 RMK A01 T03910048  RH  012%=      5-min Rain = 0
KTA1 140130Z 17013KT 39/05 A2982 RMK A01 T03900048  RH  012%=      5-min Rain = 0
KTA1 140131Z 17013KT 39/05 A2982 RMK A01 T03890048  RH  012%=      5-min Rain = 0
KTA1 140132Z 18014KT 39/05 A2983 RMK A01 T03890048  RH  012%=      5-min Rain = 0
KTA1 140133Z 18012KT 39/05 A2983 RMK A01 T03880049  RH  012%=      5-min Rain = 0
KTA1 140134Z 18011KT 39/05 A2983 RMK A01 T03870049  RH  013%=      5-min Rain = 0
KTA1 140135Z 18011KT 39/05 A2983 RMK A01 T03860049  RH  013%=      5-min Rain = 0
KTA1 140136Z 17010G15KT 39/05 A2983 RMK A01 T03850050  RH  013%=      5-min Rain = 0
KTA1 140137Z 17011KT 38/05 A2983 RMK A01 T03840050  RH  013%=      5-min Rain = 0
KTA1 140138Z 17010KT 38/05 A2983 RMK A01 T03820049  RH  013%=      5-min Rain = 0
KTA1 140139Z 17010KT 38/05 A2983 RMK A01 T03820049  RH  013%=      5-min Rain = 0
KTA1 140140Z 17010KT 38/05 A2983 RMK A01 T03810049  RH  013%=      5-min Rain = 0
KTA1 140141Z 17010KT 38/05 A2983 RMK A01 T03800049  RH  013%=      5-min Rain = 0
KTA1 140142Z 17011KT 38/05 A2983 RMK A01 T03800048  RH  013%=      5-min Rain = 0
KTA1 140143Z 17011KT 38/05 A2983 RMK A01 T03800048  RH  013%=      5-min Rain = 0
KTA1 140144Z 17012KT 38/05 A2983 RMK A01 T03800047  RH  013%=      5-min Rain = 0
KTA1 140145Z 17011KT 38/05 A2983 RMK A01 T03800047  RH  013%=      5-min Rain = 0
KTA1 140146Z 17012KT 38/05 A2983 RMK A01 T03800047  RH  013%=      5-min Rain = 0
KTA1 140147Z 16011KT 38/05 A2983 RMK A01 T03800046  RH  013%=      5-min Rain = 0
KTA1 140148Z 17012KT 38/05 A2983 RMK A01 T03800046  RH  013%=      5-min Rain = 0
KTA1 140149Z 17013KT 38/05 A2983 RMK A01 T03790046  RH  013%=      5-min Rain = 0
KTA1 140150Z 17011KT 38/05 A2983 RMK A01 T03790047  RH  013%=      5-min Rain = 0
KTA1 140151Z 17012KT 38/05 A2983 RMK A01 T03780047  RH  013%=      5-min Rain = 0
KTA1 140152Z 17012KT 38/05 A2983 RMK A01 T03780047  RH  013%=      5-min Rain = 0
KTA1 140153Z 17012KT 38/05 A2983 RMK A01 T03770047  RH  013%=      5-min Rain = 0
KTA1 140154Z 17011KT 38/05 A2983 RMK A01 T03770047  RH  013%=      5-min Rain = 0
KTA1 140155Z 17012KT 38/05 A2983 RMK A01 T03760048  RH  013%=      5-min Rain = 0
KTA1 140156Z 17012KT 38/05 A2983 RMK A01 T03750047  RH  013%=      5-min Rain = 0
KTA1 140157Z 16012KT 38/05 A2983 RMK A01 T03750047  RH  013%=      5-min Rain = 0
KTA1 140158Z 17012KT 38/05 A2983 RMK A01 T03750047  RH  013%=      5-min Rain = 0
KTA1 140159Z 17013KT 38/05 A2983 RMK A01 T03750047  RH  013%=      5-min Rain = 0
KTA1 140200Z 17012KT 38/05 A2983 RMK A01 T03750047  RH  013%=      5-min Rain = 0
KTA1 140201Z 17014KT 38/05 A2983 RMK A01 T03750046  RH  013%=      5-min Rain = 0
KTA1 140202Z 17012KT 38/05 A2983 RMK A01 T03760046  RH  013%=      5-min Rain = 0
KTA1 140203Z 17012KT 38/05 A2983 RMK A01 T03760047  RH  013%=      5-min Rain = 0
KTA1 140204Z 17012KT 38/05 A2983 RMK A01 T03750047  RH  013%=      5-min Rain = 0
KTA1 140205Z 17012KT 37/05 A2983 RMK A01 T03740047  RH  013%=      5-min Rain = 0
KTA1 140206Z 17012KT 37/05 A2983 RMK A01 T03730047  RH  013%=      5-min Rain = 0
KTA1 140207Z 17011KT 37/05 A2983 RMK A01 T03720047  RH  013%=      5-min Rain = 0
KTA1 140208Z 16011KT 37/05 A2983 RMK A01 T03720047  RH  013%=      5-min Rain = 0
KTA1 140209Z 17011KT 37/05 A2983 RMK A01 T03710047  RH  014%=      5-min Rain = 0
KTA1 140210Z 17010KT 37/05 A2983 RMK A01 T03700047  RH  014%=      5-min Rain = 0
KTA1 140211Z 16009KT 37/05 A2983 RMK A01 T03690047  RH  014%=      5-min Rain = 0
KTA1 140212Z 16010KT 37/05 A2983 RMK A01 T03680047  RH  014%=      5-min Rain = 0
KTA1 140213Z 17013KT 37/05 A2983 RMK A01 T03680046  RH  014%=      5-min Rain = 0
KTA1 140214Z 16012KT 37/05 A2983 RMK A01 T03690046  RH  014%=      5-min Rain = 0
KTA1 140215Z 17014KT 37/05 A2983 RMK A01 T03690045  RH  013%=      5-min Rain = 0
KTA1 140216Z 17012KT 37/05 A2983 RMK A01 T03700045  RH  013%=      5-min Rain = 0
KTA1 140217Z 16013KT 37/05 A2983 RMK A01 T03700045  RH  013%=      5-min Rain = 0
KTA1 140218Z 16011KT 37/05 A2983 RMK A01 T03700045  RH  013%=      5-min Rain = 0
KTA1 140219Z 16012KT 37/05 A2983 RMK A01 T03700045  RH  013%=      5-min Rain = 0
KTA1 140220Z 16011KT 37/05 A2983 RMK A01 T03690045  RH  013%=      5-min Rain = 0
KTA1 140221Z 16011KT 37/05 A2983 RMK A01 T03680045  RH  014%=      5-min Rain = 0
KTA1 140222Z 16012KT 37/04 A2983 RMK A01 T03680044  RH  014%=      5-min Rain = 0
KTA1 140223Z 16011G16KT 37/04 A2983 RMK A01 T03670044  RH  014%=      5-min Rain = 0
KTA1 140224Z 17012KT 37/04 A2983 RMK A01 T03680043  RH  013%=      5-min Rain = 0
KTA1 140225Z 17011KT 37/04 A2983 RMK A01 T03680043  RH  013%=      5-min Rain = 0
KTA1 140226Z 17011KT 37/04 A2983 RMK A01 T03670043  RH  013%=      5-min Rain = 0
KTA1 140227Z 17011KT 37/04 A2983 RMK A01 T03670043  RH  013%=      5-min Rain = 0
KTA1 140228Z 16010KT 37/04 A2983 RMK A01 T03670043  RH  013%=      5-min Rain = 0
KTA1 140229Z 17011KT 37/04 A2983 RMK A01 T03660043  RH  013%=      5-min Rain = 0
KTA1 140230Z 17012KT 37/04 A2983 RMK A01 T03660042  RH  014%=      5-min Rain = 0
KTA1 140231Z 17011KT 37/04 A2983 RMK A01 T03650042  RH  014%=      5-min Rain = 0
KTA1 140232Z 17011KT 37/04 A2984 RMK A01 T03650042  RH  014%=      5-min Rain = 0
KTA1 140233Z 17010KT 37/04 A2983 RMK A01 T03650042  RH  014%=      5-min Rain = 0
KTA1 140234Z 17012KT 36/04 A2983 RMK A01 T03640042  RH  014%=      5-min Rain = 0
KTA1 140235Z 17012KT 36/04 A2984 RMK A01 T03640042  RH  014%=      5-min Rain = 0
KTA1 140236Z 17011KT 36/04 A2984 RMK A01 T03630041  RH  014%=      5-min Rain = 0
KTA1 140237Z 17011KT 36/04 A2984 RMK A01 T03630042  RH  014%=      5-min Rain = 0
KTA1 140238Z 17010KT 36/04 A2984 RMK A01 T03620042  RH  014%=      5-min Rain = 0
KTA1 140239Z 17012KT 36/04 A2984 RMK A01 T03610042  RH  014%=      5-min Rain = 0
KTA1 140240Z 17010KT 36/04 A2984 RMK A01 T03610041  RH  014%=      5-min Rain = 0
KTA1 140241Z 17010KT 36/04 A2984 RMK A01 T03610041  RH  014%=      5-min Rain = 0
KTA1 140242Z 17012KT 36/04 A2984 RMK A01 T03600041  RH  014%=      5-min Rain = 0
KTA1 140243Z 17010KT 36/04 A2984 RMK A01 T03600041  RH  014%=      5-min Rain = 0
KTA1 140244Z 17012KT 36/04 A2984 RMK A01 T03600041  RH  014%=      5-min Rain = 0
KTA1 140245Z 17012KT 36/04 A2984 RMK A01 T03610041  RH  014%=      5-min Rain = 0
KTA1 140246Z 17013KT 36/04 A2984 RMK A01 T03610041  RH  014%=      5-min Rain = 0
KTA1 140247Z 17011KT 36/04 A2984 RMK A01 T03610041  RH  014%=      5-min Rain = 0
KTA1 140248Z 17011KT 36/04 A2984 RMK A01 T03600041  RH  014%=      5-min Rain = 0
KTA1 140249Z 17012KT 36/04 A2984 RMK A01 T03600040  RH  014%=      5-min Rain = 0
KTA1 140250Z 17014KT 36/04 A2984 RMK A01 T03600040  RH  014%=      5-min Rain = 0
KTA1 140251Z 17011KT 36/04 A2984 RMK A01 T03600040  RH  014%=      5-min Rain = 0
KTA1 140252Z 17013KT 36/04 A2984 RMK A01 T03600041  RH  014%=      5-min Rain = 0
KTA1 140253Z 17012KT 36/04 A2984 RMK A01 T03590041  RH  014%=      5-min Rain = 0
KTA1 140254Z 17012KT 36/04 A2984 RMK A01 T03590040  RH  014%=      5-min Rain = 0
KTA1 140255Z 17012KT 36/04 A2984 RMK A01 T03580040  RH  014%=      5-min Rain = 0
KTA1 140256Z 17012KT 36/04 A2984 RMK A01 T03580040  RH  014%=      5-min Rain = 0
KTA1 140257Z 17011KT 36/04 A2984 RMK A01 T03580041  RH  014%=      5-min Rain = 0
KTA1 140258Z 17011KT 36/04 A2984 RMK A01 T03570041  RH  014%=      5-min Rain = 0
KTA1 140259Z 17011KT 36/04 A2984 RMK A01 T03560040  RH  014%=      5-min Rain = 0
KTA1 140300Z 17011KT 36/04 A2984 RMK A01 T03550041  RH  014%=      5-min Rain = 0
KTA1 140301Z 17011KT 36/04 A2984 RMK A01 T03550041  RH  014%=      5-min Rain = 0
KTA1 140302Z 17011KT 35/04 A2984 RMK A01 T03540041  RH  014%=      5-min Rain = 0
KTA1 140303Z 17011KT 35/04 A2984 RMK A01 T03540041  RH  014%=      5-min Rain = 0
KTA1 140304Z 17011KT 35/04 A2985 RMK A01 T03540041  RH  014%=      5-min Rain = 0
KTA1 140305Z 17011KT 35/04 A2985 RMK A01 T03540041  RH  014%=      5-min Rain = 0
KTA1 140306Z 17012KT 35/04 A2985 RMK A01 T03540042  RH  014%=      5-min Rain = 0
KTA1 140307Z 17011KT 35/04 A2985 RMK A01 T03530042  RH  014%=      5-min Rain = 0
KTA1 140308Z 17012KT 35/04 A2985 RMK A01 T03530042  RH  014%=      5-min Rain = 0
KTA1 140309Z 17013KT 35/04 A2985 RMK A01 T03530042  RH  014%=      5-min Rain = 0
KTA1 140310Z 17013KT 35/04 A2985 RMK A01 T03530043  RH  014%=      5-min Rain = 0
KTA1 140311Z 16012KT 35/04 A2985 RMK A01 T03530043  RH  014%=      5-min Rain = 0
KTA1 140312Z 17013KT 35/04 A2985 RMK A01 T03520043  RH  015%=      5-min Rain = 0
KTA1 140313Z 17011KT 35/04 A2985 RMK A01 T03520043  RH  015%=      5-min Rain = 0
KTA1 140314Z 17011KT 35/04 A2985 RMK A01 T03510043  RH  015%=      5-min Rain = 0
KTA1 140315Z 17011KT 35/04 A2985 RMK A01 T03500042  RH  015%=      5-min Rain = 0
KTA1 140316Z 17011KT 35/04 A2985 RMK A01 T03500043  RH  015%=      5-min Rain = 0
KTA1 140317Z 17012KT 35/04 A2985 RMK A01 T03500043  RH  015%=      5-min Rain = 0
KTA1 140318Z 17011KT 35/04 A2985 RMK A01 T03490043  RH  015%=      5-min Rain = 0
KTA1 140319Z 17011KT 35/04 A2985 RMK A01 T03490043  RH  015%=      5-min Rain = 0
KTA1 140320Z 17011KT 35/04 A2985 RMK A01 T03490042  RH  015%=      5-min Rain = 0
KTA1 140321Z 17011G18KT 35/04 A2985 RMK A01 T03490043  RH  015%=      5-min Rain = 0
KTA1 140322Z 17012KT 35/04 A2985 RMK A01 T03490043  RH  015%=      5-min Rain = 0
KTA1 140323Z 17013G19KT 35/04 A2985 RMK A01 T03490043  RH  015%=      5-min Rain = 0
KTA1 140324Z 17013KT 35/04 A2985 RMK A01 T03490044  RH  015%=      5-min Rain = 0
KTA1 140325Z 17013KT 35/05 A2985 RMK A01 T03500045  RH  015%=      5-min Rain = 0
KTA1 140326Z 17012KT 35/05 A2985 RMK A01 T03500046  RH  015%=      5-min Rain = 0
KTA1 140327Z 17013KT 35/05 A2985 RMK A01 T03490046  RH  015%=      5-min Rain = 0
KTA1 140328Z 17012KT 35/05 A2985 RMK A01 T03490047  RH  015%=      5-min Rain = 0
KTA1 140329Z 17013KT 35/05 A2985 RMK A01 T03490047  RH  015%=      5-min Rain = 0
KTA1 140330Z 17013KT 35/05 A2985 RMK A01 T03490048  RH  015%=      5-min Rain = 0
KTA1 140331Z 16013KT 35/05 A2986 RMK A01 T03490049  RH  015%=      5-min Rain = 0
KTA1 140332Z 17012KT 35/05 A2986 RMK A01 T03490050  RH  016%=      5-min Rain = 0
KTA1 140333Z 17013KT 35/05 A2986 RMK A01 T03490051  RH  016%=      5-min Rain = 0
KTA1 140334Z 17011KT 35/05 A2986 RMK A01 T03480051  RH  016%=      5-min Rain = 0
KTA1 140335Z 17012KT 35/05 A2986 RMK A01 T03480052  RH  016%=      5-min Rain = 0
KTA1 140336Z 17012G17KT 35/05 A2986 RMK A01 T03480053  RH  016%=      5-min Rain = 0
KTA1 140337Z 17013KT 35/05 A2986 RMK A01 T03470054  RH  016%=      5-min Rain = 0
KTA1 140338Z 17012KT 35/05 A2986 RMK A01 T03470054  RH  016%=      5-min Rain = 0
KTA1 140339Z 17012KT 35/06 A2986 RMK A01 T03460055  RH  016%=      5-min Rain = 0
KTA1 140340Z 17011KT 35/06 A2986 RMK A01 T03460056  RH  016%=      5-min Rain = 0
KTA1 140341Z 17012KT 35/06 A2986 RMK A01 T03450057  RH  017%=      5-min Rain = 0
KTA1 140342Z 17012KT 35/06 A2986 RMK A01 T03450058  RH  017%=      5-min Rain = 0
KTA1 140343Z 17013G18KT 35/06 A2986 RMK A01 T03450059  RH  017%=      5-min Rain = 0
KTA1 140344Z 17012KT 35/06 A2986 RMK A01 T03450060  RH  017%=      5-min Rain = 0
KTA1 140345Z 17011KT 35/06 A2986 RMK A01 T03450060  RH  017%=      5-min Rain = 0
KTA1 140346Z 17012KT 35/06 A2986 RMK A01 T03450061  RH  017%=      5-min Rain = 0
KTA1 140347Z 17012G17KT 35/06 A2986 RMK A01 T03450062  RH  017%=      5-min Rain = 0
KTA1 140348Z 17011KT 35/06 A2986 RMK A01 T03450062  RH  017%=      5-min Rain = 0
KTA1 140349Z 17013KT 34/06 A2986 RMK A01 T03440063  RH  017%=      5-min Rain = 0
KTA1 140350Z 17011KT 34/06 A2986 RMK A01 T03440064  RH  018%=      5-min Rain = 0
KTA1 140351Z 17010KT 34/06 A2986 RMK A01 T03440064  RH  018%=      5-min Rain = 0
KTA1 140352Z 17012KT 34/06 A2986 RMK A01 T03430064  RH  018%=      5-min Rain = 0
KTA1 140353Z 17013KT 34/07 A2986 RMK A01 T03430065  RH  018%=      5-min Rain = 0
KTA1 140354Z 16013KT 34/07 A2986 RMK A01 T03430065  RH  018%=      5-min Rain = 0
KTA1 140355Z 16013KT 34/07 A2986 RMK A01 T03440066  RH  018%=      5-min Rain = 0
KTA1 140356Z 17014KT 34/07 A2986 RMK A01 T03440066  RH  018%=      5-min Rain = 0
KTA1 140357Z 17014KT 34/07 A2986 RMK A01 T03440067  RH  018%=      5-min Rain = 0
KTA1 140358Z 17014G19KT 34/07 A2986 RMK A01 T03440067  RH  018%=      5-min Rain = 0
KTA1 140359Z 17013KT 35/07 A2986 RMK A01 T03450068  RH  018%=      5-min Rain = 0
KTA1 140400Z 16013KT 35/07 A2986 RMK A01 T03450068  RH  018%=      5-min Rain = 0
KTA1 140401Z 16014KT 34/07 A2986 RMK A01 T03440068  RH  018%=      5-min Rain = 0
KTA1 140402Z 16013KT 34/07 A2986 RMK A01 T03430068  RH  018%=      5-min Rain = 0
KTA1 140403Z 16012KT 34/07 A2986 RMK A01 T03430068  RH  018%=      5-min Rain = 0
KTA1 140404Z 16012KT 34/07 A2986 RMK A01 T03420068  RH  018%=      5-min Rain = 0
KTA1 140405Z 16011KT 34/07 A2987 RMK A01 T03410068  RH  018%=      5-min Rain = 0
KTA1 140406Z 16012KT 34/07 A2987 RMK A01 T03410068  RH  019%=      5-min Rain = 0
KTA1 140407Z 17011KT 34/07 A2987 RMK A01 T03400068  RH  019%=      5-min Rain = 0
KTA1 140408Z 16012KT 34/07 A2987 RMK A01 T03390068  RH  019%=      5-min Rain = 0
KTA1 140409Z 17014KT 34/07 A2987 RMK A01 T03390067  RH  019%=      5-min Rain = 0
KTA1 140410Z 16014KT 34/07 A2987 RMK A01 T03390067  RH  019%=      5-min Rain = 0
KTA1 140411Z 16014KT 34/07 A2987 RMK A01 T03390067  RH  018%=      5-min Rain = 0
KTA1 140412Z 17014KT 34/07 A2987 RMK A01 T03400067  RH  018%=      5-min Rain = 0
KTA1 140413Z 17012KT 34/07 A2987 RMK A01 T03390067  RH  018%=      5-min Rain = 0
KTA1 140414Z 17013KT 34/07 A2987 RMK A01 T03380066  RH  019%=      5-min Rain = 0
KTA1 140415Z 16012KT 34/07 A2987 RMK A01 T03380066  RH  019%=      5-min Rain = 0
KTA1 140416Z 16012G17KT 34/07 A2987 RMK A01 T03370066  RH  019%=      5-min Rain = 0
KTA1 140417Z 16011KT 34/07 A2987 RMK A01 T03370065  RH  019%=      5-min Rain = 0
KTA1 140418Z 17013KT 34/07 A2987 RMK A01 T03360065  RH  019%=      5-min Rain = 0
KTA1 140419Z 17011KT 34/07 A2987 RMK A01 T03360065  RH  019%=      5-min Rain = 0
KTA1 140420Z 17011KT 34/07 A2987 RMK A01 T03360065  RH  019%=      5-min Rain = 0
KTA1 140421Z 16011KT 34/07 A2987 RMK A01 T03360065  RH  019%=      5-min Rain = 0
KTA1 140422Z 17013KT 34/06 A2987 RMK A01 T03360064  RH  019%=      5-min Rain = 0
KTA1 140423Z 17011KT 34/06 A2987 RMK A01 T03350063  RH  018%=      5-min Rain = 0
KTA1 140424Z 17013KT 34/06 A2987 RMK A01 T03350063  RH  018%=      5-min Rain = 0
KTA1 140425Z 16013KT 34/06 A2987 RMK A01 T03360062  RH  018%=      5-min Rain = 0
KTA1 140426Z 17013KT 34/06 A2987 RMK A01 T03360063  RH  018%=      5-min Rain = 0
KTA1 140427Z 17011G17KT 34/06 A2987 RMK A01 T03360063  RH  018%=      5-min Rain = 0
KTA1 140428Z 17012KT 34/06 A2987 RMK A01 T03360063  RH  018%=      5-min Rain = 0
KTA1 140429Z 17011KT 34/06 A2987 RMK A01 T03360062  RH  018%=      5-min Rain = 0
KTA1 140430Z 17012KT 34/06 A2987 RMK A01 T03350062  RH  018%=      5-min Rain = 0
KTA1 140431Z 17013KT 34/06 A2987 RMK A01 T03350062  RH  018%=      5-min Rain = 0
KTA1 140432Z 17012G17KT 33/06 A2987 RMK A01 T03340062  RH  018%=      5-min Rain = 0
KTA1 140433Z 17014KT 33/06 A2987 RMK A01 T03340061  RH  018%=      5-min Rain = 0
KTA1 140434Z 17012KT 34/06 A2987 RMK A01 T03350061  RH  018%=      5-min Rain = 0
KTA1 140435Z 17012KT 34/06 A2987 RMK A01 T03350061  RH  018%=      5-min Rain = 0
KTA1 140436Z 17011KT 34/06 A2987 RMK A01 T03350061  RH  018%=      5-min Rain = 0
KTA1 140437Z 18012KT 34/06 A2987 RMK A01 T03350061  RH  018%=      5-min Rain = 0
KTA1 140438Z 17012KT 33/06 A2987 RMK A01 T03340061  RH  018%=      5-min Rain = 0
KTA1 140439Z 17012KT 33/06 A2987 RMK A01 T03340061  RH  018%=      5-min Rain = 0
KTA1 140440Z 17012KT 33/06 A2987 RMK A01 T03340061  RH  018%=      5-min Rain = 0
KTA1 140441Z 17012KT 33/06 A2987 RMK A01 T03330061  RH  018%=      5-min Rain = 0
KTA1 140442Z 17012KT 33/06 A2987 RMK A01 T03330061  RH  018%=      5-min Rain = 0
KTA1 140443Z 17012KT 33/06 A2987 RMK A01 T03330061  RH  018%=      5-min Rain = 0
KTA1 140444Z 17011KT 33/06 A2987 RMK A01 T03330061  RH  018%=      5-min Rain = 0
KTA1 140445Z 17012KT 33/06 A2987 RMK A01 T03320061  RH  018%=      5-min Rain = 0
KTA1 140446Z 17012KT 33/06 A2987 RMK A01 T03320061  RH  018%=      5-min Rain = 0
KTA1 140447Z 17014G20KT 33/06 A2987 RMK A01 T03310061  RH  019%=      5-min Rain = 0
KTA1 140448Z 18011G16KT 33/06 A2987 RMK A01 T03310061  RH  019%=      5-min Rain = 0
KTA1 140449Z 17012KT 33/06 A2987 RMK A01 T03320061  RH  019%=      5-min Rain = 0
KTA1 140450Z 17010KT 33/06 A2987 RMK A01 T03320061  RH  019%=      5-min Rain = 0
KTA1 140451Z 17012KT 33/06 A2987 RMK A01 T03310062  RH  019%=      5-min Rain = 0
KTA1 140452Z 17011KT 33/06 A2987 RMK A01 T03310062  RH  019%=      5-min Rain = 0
KTA1 140453Z 17012KT 33/06 A2987 RMK A01 T03310061  RH  019%=      5-min Rain = 0
KTA1 140454Z 17012KT 33/06 A2987 RMK A01 T03310062  RH  019%=      5-min Rain = 0
KTA1 140455Z 18012KT 33/06 A2987 RMK A01 T03310061  RH  019%=      5-min Rain = 0
KTA1 140456Z 17013KT 33/06 A2987 RMK A01 T03310061  RH  019%=      5-min Rain = 0
KTA1 140457Z 17010KT 33/06 A2987 RMK A01 T03320062  RH  019%=      5-min Rain = 0
KTA1 140458Z 17012G17KT 33/06 A2987 RMK A01 T03320062  RH  019%=      5-min Rain = 0
KTA1 140459Z 17013KT 33/06 A2987 RMK A01 T03320062  RH  019%=      5-min Rain = 0

Page generated in 0.0763 seconds.